Time,TemperatureF,DewpointF,PressureIn,WindDirection,WindDirectionDegrees,WindSpeedMPH,WindSpeedGustMPH,Humidity,HourlyPrecipIn,Conditions,Clouds,dailyrainin,SoftwareType,DateUTC
2013-01-15 00:00:00,74.7,66.0,30.14,ESE,118,14.9,15.5,74,0.00,,,0.00,TxWx,2013-01-15 05:00:00,
2013-01-15 00:01:00,74.7,66.0,30.15,ESE,118,15.5,17.3,74,0.00,,,0.00,TxWx,2013-01-15 05:01:00,
2013-01-15 00:02:00,74.7,66.0,30.15,ESE,118,13.0,13.6,74,0.00,,,0.00,TxWx,2013-01-15 05:02:00,
2013-01-15 00:06:00,74.8,66.0,30.14,East,96,18.6,19.8,74,0.00,,,0.00,TxWx,2013-01-15 05:06:00,
2013-01-15 00:07:00,75.0,66.0,30.14,ESE,118,14.9,16.7,74,0.00,,,0.00,TxWx,2013-01-15 05:07:00,
2013-01-15 00:10:00,74.6,66.0,30.14,East,96,19.2,19.2,73,0.00,,,0.00,TxWx,2013-01-15 05:10:00,
2013-01-15 00:11:00,75.0,66.0,30.14,East,96,13.6,13.6,74,0.00,,,0.00,TxWx,2013-01-15 05:11:00,
2013-01-15 00:12:00,74.8,66.0,30.14,ESE,118,17.3,17.3,74,0.00,,,0.00,TxWx,2013-01-15 05:12:00,
2013-01-15 00:13:00,74.8,66.0,30.14,ESE,118,14.9,14.9,74,0.00,,,0.00,TxWx,2013-01-15 05:13:00,
2013-01-15 00:17:00,74.8,66.0,30.14,ESE,118,16.7,17.3,73,0.00,,,0.00,TxWx,2013-01-15 05:17:00,
2013-01-15 00:18:00,75.0,66.0,30.14,ESE,118,15.5,15.5,73,0.00,,,0.00,TxWx,2013-01-15 05:18:00,
2013-01-15 00:19:00,75.1,66.0,30.14,ESE,118,14.2,15.5,73,0.00,,,0.00,TxWx,2013-01-15 05:19:00,
2013-01-15 00:23:00,74.8,66.0,30.14,ESE,118,13.0,14.2,73,0.00,,,0.00,TxWx,2013-01-15 05:23:00,
2013-01-15 00:24:00,75.1,66.0,30.14,ESE,118,16.7,16.7,74,0.00,,,0.00,TxWx,2013-01-15 05:24:00,
2013-01-15 00:25:00,75.0,66.0,30.14,East,96,13.6,14.2,74,0.00,,,0.00,TxWx,2013-01-15 05:25:00,
2013-01-15 00:26:00,74.8,66.0,30.14,ESE,118,16.1,16.7,73,0.00,,,0.00,TxWx,2013-01-15 05:26:00,
2013-01-15 00:28:00,74.7,66.0,30.14,ESE,118,13.6,15.5,73,0.00,,,0.00,TxWx,2013-01-15 05:28:00,
2013-01-15 00:30:00,74.6,66.0,30.14,SE,141,15.5,15.5,73,0.00,,,0.00,TxWx,2013-01-15 05:30:00,
2013-01-15 00:32:00,74.7,66.0,30.14,East,96,17.3,19.8,74,0.00,,,0.00,TxWx,2013-01-15 05:32:00,
2013-01-15 00:33:00,74.7,66.0,30.14,ESE,118,17.3,17.3,74,0.00,,,0.00,TxWx,2013-01-15 05:33:00,
2013-01-15 00:37:00,75.0,66.0,30.13,East,96,13.0,14.2,74,0.00,,,0.00,TxWx,2013-01-15 05:37:00,
2013-01-15 00:38:00,74.9,66.0,30.14,ESE,118,12.4,14.2,74,0.00,,,0.00,TxWx,2013-01-15 05:38:00,
2013-01-15 00:39:00,75.0,66.0,30.14,ESE,118,13.6,13.6,74,0.00,,,0.00,TxWx,2013-01-15 05:39:00,
2013-01-15 00:40:00,75.0,66.0,30.14,ESE,118,12.4,14.2,74,0.00,,,0.00,TxWx,2013-01-15 05:40:00,
2013-01-15 00:43:00,74.9,66.0,30.14,ESE,118,12.4,13.0,73,0.00,,,0.00,TxWx,2013-01-15 05:43:00,
2013-01-15 00:45:00,74.8,66.0,30.13,ESE,118,11.8,13.0,74,0.00,,,0.00,TxWx,2013-01-15 05:45:00,
2013-01-15 00:46:00,74.9,66.0,30.14,ESE,118,16.1,16.1,74,0.00,,,0.00,TxWx,2013-01-15 05:46:00,
2013-01-15 00:47:00,75.1,66.0,30.14,East,96,12.4,12.4,74,0.00,,,0.00,TxWx,2013-01-15 05:47:00,
2013-01-15 00:48:00,74.6,66.0,30.14,ESE,118,14.9,16.1,74,0.00,,,0.00,TxWx,2013-01-15 05:48:00,
2013-01-15 00:51:00,74.5,65.0,30.14,East,96,17.3,17.3,73,0.00,,,0.00,TxWx,2013-01-15 05:51:00,
2013-01-15 00:52:00,74.7,66.0,30.14,ESE,118,13.6,14.9,73,0.00,,,0.00,TxWx,2013-01-15 05:52:00,
2013-01-15 00:53:00,75.3,66.0,30.14,ESE,118,14.9,14.9,74,0.00,,,0.00,TxWx,2013-01-15 05:53:00,
2013-01-15 00:55:00,74.6,66.0,30.13,ESE,118,17.3,17.3,73,0.00,,,0.00,TxWx,2013-01-15 05:55:00,
2013-01-15 00:56:00,74.8,66.0,30.14,ESE,118,14.9,14.9,74,0.00,,,0.00,TxWx,2013-01-15 05:56:00,
2013-01-15 00:58:00,75.1,66.0,30.14,ESE,118,14.2,14.2,74,0.00,,,0.00,TxWx,2013-01-15 05:58:00,
2013-01-15 01:01:00,74.8,66.0,30.14,ESE,118,16.7,17.3,73,0.00,,,0.00,TxWx,2013-01-15 06:01:00,
2013-01-15 01:03:00,74.6,66.0,30.14,ESE,118,11.8,11.8,73,0.00,,,0.00,TxWx,2013-01-15 06:03:00,
2013-01-15 01:06:00,74.8,66.0,30.14,ESE,118,13.6,13.6,74,0.00,,,0.00,TxWx,2013-01-15 06:06:00,
2013-01-15 01:07:00,74.8,66.0,30.14,East,96,11.1,13.0,75,0.00,,,0.00,TxWx,2013-01-15 06:07:00,
2013-01-15 01:09:00,74.5,65.0,30.14,SE,141,13.0,14.9,74,0.00,,,0.00,TxWx,2013-01-15 06:09:00,
2013-01-15 01:10:00,74.5,66.0,30.14,East,96,11.8,11.8,73,0.00,,,0.00,TxWx,2013-01-15 06:10:00,
2013-01-15 01:11:00,74.5,66.0,30.14,ESE,118,14.2,14.9,74,0.00,,,0.00,TxWx,2013-01-15 06:11:00,
2013-01-15 01:12:00,74.7,66.0,30.14,East,96,13.6,14.2,74,0.00,,,0.00,TxWx,2013-01-15 06:12:00,
2013-01-15 01:16:00,74.4,65.0,30.14,East,96,12.4,13.6,73,0.00,,,0.00,TxWx,2013-01-15 06:16:00,
2013-01-15 01:17:00,74.4,65.0,30.14,ESE,118,14.2,14.2,73,0.00,,,0.00,TxWx,2013-01-15 06:17:00,
2013-01-15 01:18:00,74.7,66.0,30.14,East,96,13.6,13.6,73,0.00,,,0.00,TxWx,2013-01-15 06:18:00,
2013-01-15 01:22:00,74.6,66.0,30.14,ESE,118,16.7,16.7,74,0.00,,,0.00,TxWx,2013-01-15 06:22:00,
2013-01-15 01:23:00,74.6,66.0,30.14,ESE,118,14.2,16.1,74,0.00,,,0.00,TxWx,2013-01-15 06:23:00,
2013-01-15 01:24:00,74.6,66.0,30.14,East,96,14.2,14.2,74,0.00,,,0.00,TxWx,2013-01-15 06:24:00,
2013-01-15 01:27:00,74.6,66.0,30.14,ESE,118,13.6,13.6,75,0.00,,,0.00,TxWx,2013-01-15 06:27:00,
2013-01-15 01:28:00,74.6,66.0,30.14,ESE,118,12.4,12.4,75,0.00,,,0.00,TxWx,2013-01-15 06:28:00,
2013-01-15 01:29:00,74.5,66.0,30.14,ESE,118,13.0,14.9,75,0.00,,,0.00,TxWx,2013-01-15 06:29:00,
2013-01-15 01:33:00,74.7,67.0,30.14,East,96,14.2,14.9,75,0.00,,,0.00,TxWx,2013-01-15 06:33:00,
2013-01-15 01:34:00,74.5,66.0,30.14,East,96,13.0,14.9,75,0.00,,,0.00,TxWx,2013-01-15 06:34:00,
2013-01-15 01:35:00,74.1,65.0,30.14,East,96,15.5,16.1,74,0.00,,,0.00,TxWx,2013-01-15 06:35:00,
2013-01-15 01:39:00,74.5,66.0,30.14,East,96,13.6,14.9,75,0.00,,,0.00,TxWx,2013-01-15 06:39:00,
2013-01-15 01:40:00,74.5,65.0,30.14,East,96,14.9,14.9,75,0.00,,,0.00,TxWx,2013-01-15 06:40:00,
2013-01-15 01:41:00,74.5,66.0,30.14,East,96,10.5,11.1,75,0.00,,,0.00,TxWx,2013-01-15 06:41:00,
2013-01-15 01:42:00,74.7,67.0,30.14,East,96,11.8,11.8,75,0.00,,,0.00,TxWx,2013-01-15 06:42:00,
2013-01-15 01:45:00,74.4,65.0,30.13,East,96,12.4,12.4,75,0.00,,,0.00,TxWx,2013-01-15 06:45:00,
2013-01-15 01:46:00,74.9,67.0,30.14,ESE,118,13.0,14.2,76,0.00,,,0.00,TxWx,2013-01-15 06:46:00,
2013-01-15 01:47:00,74.5,67.0,30.14,East,96,11.8,14.2,75,0.00,,,0.00,TxWx,2013-01-15 06:47:00,
2013-01-15 01:49:00,74.6,67.0,30.14,East,96,16.7,16.7,75,0.00,,,0.00,TxWx,2013-01-15 06:49:00,
2013-01-15 01:51:00,74.4,65.0,30.14,ESE,118,14.2,14.2,75,0.00,,,0.00,TxWx,2013-01-15 06:51:00,
2013-01-15 01:54:00,74.4,65.0,30.13,East,96,14.2,14.2,75,0.00,,,0.00,TxWx,2013-01-15 06:54:00,
2013-01-15 01:56:00,74.5,65.0,30.13,ESE,118,9.9,9.9,75,0.00,,,0.00,TxWx,2013-01-15 06:56:00,
2013-01-15 01:59:00,74.4,65.0,30.13,ESE,118,14.9,16.7,75,0.00,,,0.00,TxWx,2013-01-15 06:59:00,
2013-01-15 02:02:00,74.1,66.0,30.13,East,96,14.2,15.5,75,0.00,,,0.00,TxWx,2013-01-15 07:02:00,
2013-01-15 02:05:00,74.4,65.0,30.13,East,96,11.8,12.4,75,0.00,,,0.00,TxWx,2013-01-15 07:05:00,
2013-01-15 02:08:00,74.2,65.0,30.12,ESE,118,17.3,17.3,74,0.00,,,0.00,TxWx,2013-01-15 07:08:00,
2013-01-15 02:09:00,74.5,66.0,30.13,ESE,118,14.2,14.2,75,0.00,,,0.00,TxWx,2013-01-15 07:09:00,
2013-01-15 02:13:00,74.5,66.0,30.12,East,96,15.5,15.5,75,0.00,,,0.00,TxWx,2013-01-15 07:13:00,
2013-01-15 02:16:00,74.4,65.0,30.12,ESE,118,14.9,14.9,75,0.00,,,0.00,TxWx,2013-01-15 07:16:00,
2013-01-15 02:19:00,74.7,66.0,30.12,ESE,118,12.4,13.0,75,0.00,,,0.00,TxWx,2013-01-15 07:19:00,
2013-01-15 02:20:00,74.5,66.0,30.12,East,96,14.9,15.5,75,0.00,,,0.00,TxWx,2013-01-15 07:20:00,
2013-01-15 02:21:00,74.8,67.0,30.12,East,96,13.0,13.6,75,0.00,,,0.00,TxWx,2013-01-15 07:21:00,
2013-01-15 02:26:00,74.3,65.0,30.12,ESE,118,11.1,14.2,73,0.00,,,0.00,TxWx,2013-01-15 07:26:00,
2013-01-15 02:31:00,74.6,66.0,30.12,East,96,13.0,13.0,74,0.00,,,0.00,TxWx,2013-01-15 07:31:00,
2013-01-15 02:33:00,74.5,66.0,30.12,ESE,118,11.8,12.4,74,0.00,,,0.00,TxWx,2013-01-15 07:33:00,
2013-01-15 02:34:00,74.5,66.0,30.12,East,96,14.2,14.2,74,0.00,,,0.00,TxWx,2013-01-15 07:34:00,
2013-01-15 02:38:00,74.5,66.0,30.12,East,96,16.7,16.7,75,0.00,,,0.00,TxWx,2013-01-15 07:38:00,
2013-01-15 02:42:00,74.5,67.0,30.12,ESE,118,14.9,16.1,75,0.00,,,0.00,TxWx,2013-01-15 07:42:00,
2013-01-15 02:43:00,74.4,66.0,30.12,East,96,14.2,14.9,75,0.00,,,0.00,TxWx,2013-01-15 07:43:00,
2013-01-15 02:46:00,74.5,67.0,30.12,East,96,12.4,14.9,76,0.00,,,0.00,TxWx,2013-01-15 07:46:00,
2013-01-15 02:48:00,74.3,66.0,30.12,SE,141,13.0,13.6,76,0.00,,,0.00,TxWx,2013-01-15 07:48:00,
2013-01-15 02:52:00,74.2,66.0,30.12,East,96,12.4,13.6,75,0.00,,,0.00,TxWx,2013-01-15 07:52:00,
2013-01-15 02:53:00,74.7,67.0,30.12,ESE,118,12.4,12.4,76,0.00,,,0.00,TxWx,2013-01-15 07:53:00,
2013-01-15 02:57:00,74.7,67.0,30.12,ESE,118,11.1,12.4,76,0.00,,,0.00,TxWx,2013-01-15 07:57:00,
2013-01-15 02:59:00,74.1,66.0,30.12,ESE,118,13.0,14.9,75,0.00,,,0.00,TxWx,2013-01-15 07:59:00,
2013-01-15 03:03:00,74.1,66.0,30.11,East,96,16.1,16.7,75,0.00,,,0.00,TxWx,2013-01-15 08:03:00,
2013-01-15 03:04:00,74.3,66.0,30.11,East,96,16.7,17.3,75,0.00,,,0.00,TxWx,2013-01-15 08:04:00,
2013-01-15 03:05:00,74.3,66.0,30.12,East,96,17.9,17.9,75,0.00,,,0.00,TxWx,2013-01-15 08:05:00,
2013-01-15 03:08:00,74.7,67.0,30.12,East,96,11.8,11.8,76,0.00,,,0.00,TxWx,2013-01-15 08:08:00,
2013-01-15 03:10:00,74.3,66.0,30.12,East,96,15.5,15.5,76,0.00,,,0.00,TxWx,2013-01-15 08:10:00,
2013-01-15 03:11:00,74.5,66.0,30.12,East,96,13.0,13.6,76,0.00,,,0.00,TxWx,2013-01-15 08:11:00,
2013-01-15 03:14:00,74.3,66.0,30.12,ESE,118,13.6,15.5,76,0.00,,,0.00,TxWx,2013-01-15 08:14:00,
2013-01-15 03:16:00,74.5,66.0,30.12,ESE,118,15.5,15.5,76,0.00,,,0.00,TxWx,2013-01-15 08:16:00,
2013-01-15 03:19:00,74.2,66.0,30.12,East,96,14.9,14.9,76,0.00,,,0.00,TxWx,2013-01-15 08:19:00,
2013-01-15 03:21:00,74.3,66.0,30.12,East,96,13.6,13.6,76,0.00,,,0.00,TxWx,2013-01-15 08:21:00,
2013-01-15 03:22:00,74.4,66.0,30.12,ESE,118,16.1,16.1,76,0.00,,,0.00,TxWx,2013-01-15 08:22:00,
2013-01-15 03:25:00,74.6,67.0,30.11,ESE,118,11.8,13.0,75,0.00,,,0.00,TxWx,2013-01-15 08:25:00,
2013-01-15 03:27:00,74.3,65.0,30.11,East,96,13.6,13.6,75,0.00,,,0.00,TxWx,2013-01-15 08:27:00,
2013-01-15 03:28:00,74.3,65.0,30.11,East,96,11.8,11.8,75,0.00,,,0.00,TxWx,2013-01-15 08:28:00,
2013-01-15 03:31:00,74.6,66.0,30.11,ESE,118,10.5,11.1,75,0.00,,,0.00,TxWx,2013-01-15 08:31:00,
2013-01-15 03:32:00,74.5,67.0,30.11,East,96,14.9,16.1,75,0.00,,,0.00,TxWx,2013-01-15 08:32:00,
2013-01-15 03:33:00,74.1,65.0,30.11,ESE,118,14.2,14.2,75,0.00,,,0.00,TxWx,2013-01-15 08:33:00,
2013-01-15 03:36:00,74.4,65.0,30.11,East,96,14.2,15.5,74,0.00,,,0.00,TxWx,2013-01-15 08:36:00,
2013-01-15 03:40:00,74.3,65.0,30.11,ESE,118,15.5,16.1,75,0.00,,,0.00,TxWx,2013-01-15 08:40:00,
2013-01-15 03:41:00,74.5,65.0,30.11,ESE,118,14.9,14.9,75,0.00,,,0.00,TxWx,2013-01-15 08:41:00,
2013-01-15 03:42:00,74.8,67.0,30.11,ESE,118,14.2,15.5,75,0.00,,,0.00,TxWx,2013-01-15 08:42:00,
2013-01-15 03:46:00,74.6,67.0,30.11,East,96,13.6,13.6,76,0.00,,,0.00,TxWx,2013-01-15 08:46:00,
2013-01-15 03:47:00,74.2,66.0,30.11,ESE,118,15.5,15.5,75,0.00,,,0.00,TxWx,2013-01-15 08:47:00,
2013-01-15 03:50:00,74.2,66.0,30.11,East,96,14.2,15.5,75,0.00,,,0.00,TxWx,2013-01-15 08:50:00,
2013-01-15 03:52:00,74.2,65.0,30.11,ESE,118,14.2,15.5,75,0.00,,,0.00,TxWx,2013-01-15 08:52:00,
2013-01-15 03:56:00,74.4,66.0,30.11,East,96,14.2,14.2,76,0.00,,,0.00,TxWx,2013-01-15 08:56:00,
2013-01-15 03:57:00,74.4,66.0,30.11,East,96,13.0,13.0,75,0.00,,,0.00,TxWx,2013-01-15 08:57:00,
2013-01-15 03:59:00,74.5,66.0,30.11,East,96,16.1,16.1,76,0.00,,,0.00,TxWx,2013-01-15 08:59:00,
2013-01-15 04:02:00,74.0,65.0,30.11,East,96,14.2,14.2,74,0.00,,,0.00,TxWx,2013-01-15 09:02:00,
2013-01-15 04:04:00,74.5,66.0,30.11,ENE,73,13.0,13.0,74,0.00,,,0.00,TxWx,2013-01-15 09:04:00,
2013-01-15 04:07:00,74.0,65.0,30.11,ESE,118,16.1,16.1,74,0.00,,,0.00,TxWx,2013-01-15 09:07:00,
2013-01-15 04:10:00,74.5,66.0,30.11,East,96,14.2,14.9,75,0.00,,,0.00,TxWx,2013-01-15 09:10:00,
2013-01-15 04:11:00,74.2,65.0,30.11,East,96,13.6,14.9,74,0.00,,,0.00,TxWx,2013-01-15 09:11:00,
2013-01-15 04:15:00,74.5,65.0,30.10,ESE,118,14.2,14.2,74,0.00,,,0.00,TxWx,2013-01-15 09:15:00,
2013-01-15 04:16:00,74.7,66.0,30.11,East,96,10.5,12.4,75,0.00,,,0.00,TxWx,2013-01-15 09:16:00,
2013-01-15 04:17:00,74.5,66.0,30.11,East,96,13.6,13.6,75,0.00,,,0.00,TxWx,2013-01-15 09:17:00,
2013-01-15 04:21:00,74.4,65.0,30.10,East,96,14.9,14.9,74,0.00,,,0.00,TxWx,2013-01-15 09:21:00,
2013-01-15 04:22:00,74.6,66.0,30.11,East,96,12.4,12.4,74,0.00,,,0.00,TxWx,2013-01-15 09:22:00,
2013-01-15 04:26:00,74.2,65.0,30.11,ESE,118,13.6,13.6,75,0.00,,,0.00,TxWx,2013-01-15 09:26:00,
2013-01-15 04:27:00,74.3,65.0,30.11,East,96,11.1,11.1,74,0.00,,,0.00,TxWx,2013-01-15 09:27:00,
2013-01-15 04:28:00,74.8,67.0,30.10,ESE,118,11.8,13.6,76,0.00,,,0.00,TxWx,2013-01-15 09:28:00,
2013-01-15 04:32:00,74.1,65.0,30.10,East,96,11.8,13.0,75,0.00,,,0.00,TxWx,2013-01-15 09:32:00,
2013-01-15 04:34:00,74.4,65.0,30.10,East,96,12.4,14.2,75,0.00,,,0.00,TxWx,2013-01-15 09:34:00,
2013-01-15 04:36:00,74.0,65.0,30.11,ESE,118,14.9,15.5,75,0.00,,,0.00,TxWx,2013-01-15 09:36:00,
2013-01-15 04:37:00,74.5,67.0,30.11,East,96,11.1,12.4,75,0.00,,,0.00,TxWx,2013-01-15 09:37:00,
2013-01-15 04:39:00,74.3,65.0,30.10,East,96,13.6,14.2,75,0.00,,,0.00,TxWx,2013-01-15 09:39:00,
2013-01-15 04:41:00,74.3,66.0,30.11,East,96,13.6,13.6,75,0.00,,,0.00,TxWx,2013-01-15 09:41:00,
2013-01-15 04:44:00,74.4,65.0,30.11,ESE,118,12.4,12.4,74,0.00,,,0.00,TxWx,2013-01-15 09:44:00,
2013-01-15 04:45:00,74.5,66.0,30.10,ESE,118,10.5,11.1,74,0.00,,,0.00,TxWx,2013-01-15 09:45:00,
2013-01-15 04:49:00,74.3,65.0,30.10,East,96,13.6,14.2,74,0.00,,,0.00,TxWx,2013-01-15 09:49:00,
2013-01-15 04:50:00,74.3,65.0,30.11,East,96,11.8,13.0,73,0.00,,,0.00,TxWx,2013-01-15 09:50:00,
2013-01-15 04:51:00,74.7,66.0,30.11,East,96,9.9,9.9,74,0.00,,,0.00,TxWx,2013-01-15 09:51:00,
2013-01-15 04:55:00,74.7,66.0,30.10,ESE,118,13.6,13.6,74,0.00,,,0.00,TxWx,2013-01-15 09:55:00,
2013-01-15 04:56:00,74.4,65.0,30.10,East,96,11.1,12.4,74,0.00,,,0.00,TxWx,2013-01-15 09:56:00,
2013-01-15 04:57:00,74.3,65.0,30.10,East,96,11.8,11.8,74,0.00,,,0.00,TxWx,2013-01-15 09:57:00,
2013-01-15 05:01:00,74.3,65.0,30.10,East,96,11.1,12.4,74,0.00,,,0.00,TxWx,2013-01-15 10:01:00,
2013-01-15 05:04:00,74.3,65.0,30.10,East,96,13.0,14.2,74,0.00,,,0.00,TxWx,2013-01-15 10:04:00,
2013-01-15 05:05:00,74.4,65.0,30.10,East,96,13.6,13.6,74,0.00,,,0.00,TxWx,2013-01-15 10:05:00,
2013-01-15 05:07:00,74.2,65.0,30.10,East,96,11.1,12.4,74,0.00,,,0.00,TxWx,2013-01-15 10:07:00,
2013-01-15 05:08:00,74.3,65.0,30.10,ESE,118,9.9,10.5,74,0.00,,,0.00,TxWx,2013-01-15 10:08:00,
2013-01-15 05:10:00,74.6,66.0,30.10,East,96,10.5,11.8,75,0.00,,,0.00,TxWx,2013-01-15 10:10:00,
2013-01-15 05:11:00,74.3,65.0,30.10,NE,51,9.3,11.8,75,0.00,,,0.00,TxWx,2013-01-15 10:11:00,
2013-01-15 05:13:00,74.5,66.0,30.10,East,96,13.0,13.0,75,0.00,,,0.00,TxWx,2013-01-15 10:13:00,
2013-01-15 05:16:00,74.5,65.0,30.11,ESE,118,13.0,13.6,74,0.00,,,0.00,TxWx,2013-01-15 10:16:00,
2013-01-15 05:18:00,74.4,65.0,30.11,ESE,118,13.6,13.6,75,0.00,,,0.00,TxWx,2013-01-15 10:18:00,
2013-01-15 05:20:00,74.4,65.0,30.10,East,96,13.6,13.6,75,0.00,,,0.00,TxWx,2013-01-15 10:20:00,
2013-01-15 05:21:00,74.7,67.0,30.11,East,96,9.3,9.9,75,0.00,,,0.00,TxWx,2013-01-15 10:21:00,
2013-01-15 05:26:00,74.3,65.0,30.11,East,96,14.9,14.9,75,0.00,,,0.00,TxWx,2013-01-15 10:26:00,
2013-01-15 05:27:00,74.5,66.0,30.11,ENE,73,11.1,12.4,75,0.00,,,0.00,TxWx,2013-01-15 10:27:00,
2013-01-15 05:30:00,74.4,66.0,30.10,East,96,9.3,11.8,75,0.00,,,0.00,TxWx,2013-01-15 10:30:00,
2013-01-15 05:32:00,74.4,66.0,30.11,East,96,14.9,14.9,75,0.00,,,0.00,TxWx,2013-01-15 10:32:00,
2013-01-15 05:33:00,74.4,66.0,30.11,East,96,11.1,11.1,75,0.00,,,0.00,TxWx,2013-01-15 10:33:00,
2013-01-15 05:34:00,74.7,67.0,30.11,East,96,11.8,13.0,76,0.00,,,0.00,TxWx,2013-01-15 10:34:00,
2013-01-15 05:36:00,74.4,66.0,30.11,ENE,73,17.3,17.3,76,0.00,,,0.00,TxWx,2013-01-15 10:36:00,
2013-01-15 05:38:00,74.4,66.0,30.11,ESE,118,12.4,12.4,76,0.00,,,0.00,TxWx,2013-01-15 10:38:00,
2013-01-15 05:39:00,74.4,66.0,30.11,East,96,11.1,11.8,75,0.00,,,0.00,TxWx,2013-01-15 10:39:00,
2013-01-15 05:41:00,74.5,67.0,30.11,ESE,118,13.0,13.6,76,0.00,,,0.00,TxWx,2013-01-15 10:41:00,
2013-01-15 05:43:00,74.3,66.0,30.11,East,96,11.1,12.4,76,0.00,,,0.00,TxWx,2013-01-15 10:43:00,
2013-01-15 05:45:00,74.5,67.0,30.11,East,96,12.4,12.4,76,0.00,,,0.00,TxWx,2013-01-15 10:45:00,
2013-01-15 05:48:00,74.7,67.0,30.11,NE,51,13.0,13.0,77,0.00,,,0.00,TxWx,2013-01-15 10:48:00,
2013-01-15 05:49:00,74.8,67.0,30.11,East,96,11.8,12.4,77,0.00,,,0.00,TxWx,2013-01-15 10:49:00,
2013-01-15 05:50:00,74.5,67.0,30.11,East,96,9.3,9.3,77,0.00,,,0.00,TxWx,2013-01-15 10:50:00,
2013-01-15 05:53:00,74.7,67.0,30.11,East,96,16.1,16.1,77,0.00,,,0.00,TxWx,2013-01-15 10:53:00,
2013-01-15 05:54:00,74.5,67.0,30.10,East,96,16.1,16.1,77,0.00,,,0.00,TxWx,2013-01-15 10:54:00,
2013-01-15 05:55:00,74.7,67.0,30.11,East,96,12.4,13.6,77,0.00,,,0.00,TxWx,2013-01-15 10:55:00,
2013-01-15 06:00:00,74.3,66.0,30.11,East,96,17.9,19.2,77,0.00,,,0.00,TxWx,2013-01-15 11:00:00,
2013-01-15 06:01:00,74.3,66.0,30.11,East,96,17.3,17.3,76,0.00,,,0.00,TxWx,2013-01-15 11:01:00,
2013-01-15 06:02:00,74.7,67.0,30.11,ESE,118,13.0,13.6,77,0.00,,,0.00,TxWx,2013-01-15 11:02:00,
2013-01-15 06:05:00,74.2,66.0,30.11,ESE,118,15.5,15.5,77,0.00,,,0.00,TxWx,2013-01-15 11:05:00,
2013-01-15 06:06:00,74.1,66.0,30.11,East,96,17.3,18.6,77,0.00,,,0.00,TxWx,2013-01-15 11:06:00,
2013-01-15 06:07:00,73.8,66.0,30.12,East,96,14.9,14.9,78,0.00,,,0.00,TxWx,2013-01-15 11:07:00,
2013-01-15 06:08:00,73.7,66.0,30.11,East,96,14.9,14.9,77,0.00,,,0.00,TxWx,2013-01-15 11:08:00,
2013-01-15 06:11:00,73.5,66.0,30.12,ESE,118,9.9,9.9,78,0.00,,,0.00,TxWx,2013-01-15 11:11:00,
2013-01-15 06:14:00,73.6,66.0,30.12,ESE,118,6.8,6.8,78,0.00,,,0.00,TxWx,2013-01-15 11:14:00,
2013-01-15 06:16:00,73.7,67.0,30.12,ESE,118,11.8,12.4,78,0.00,,,0.01,TxWx,2013-01-15 11:16:00,
2013-01-15 06:19:00,74.4,66.0,30.11,East,96,14.9,14.9,77,0.00,,,0.01,TxWx,2013-01-15 11:19:00,
2013-01-15 06:21:00,74.6,67.0,30.11,ESE,118,12.4,12.4,77,0.00,,,0.01,TxWx,2013-01-15 11:21:00,
2013-01-15 06:22:00,74.7,67.0,30.11,ESE,118,14.9,14.9,77,0.00,,,0.01,TxWx,2013-01-15 11:22:00,
2013-01-15 06:23:00,74.3,66.0,30.11,ESE,118,12.4,12.4,76,0.00,,,0.01,TxWx,2013-01-15 11:23:00,
2013-01-15 06:25:00,74.5,67.0,30.11,ESE,118,12.4,15.5,76,0.06,,,0.01,TxWx,2013-01-15 11:25:00,
2013-01-15 06:27:00,75.1,67.0,30.11,ESE,118,11.8,13.0,76,0.06,,,0.01,TxWx,2013-01-15 11:27:00,
2013-01-15 06:28:00,74.8,67.0,30.11,ESE,118,11.8,11.8,76,0.06,,,0.01,TxWx,2013-01-15 11:28:00,
2013-01-15 06:29:00,74.8,67.0,30.11,East,96,12.4,13.6,76,0.06,,,0.01,TxWx,2013-01-15 11:29:00,
2013-01-15 06:32:00,74.9,67.0,30.11,East,96,17.9,17.9,75,0.06,,,0.01,TxWx,2013-01-15 11:32:00,
2013-01-15 06:34:00,74.6,66.0,30.11,East,96,14.2,15.5,74,0.06,,,0.01,TxWx,2013-01-15 11:34:00,
2013-01-15 06:35:00,74.8,66.0,30.11,ESE,118,14.2,14.2,75,0.00,,,0.01,TxWx,2013-01-15 11:35:00,
2013-01-15 06:39:00,74.8,66.0,30.12,ESE,118,15.5,17.3,74,0.00,,,0.01,TxWx,2013-01-15 11:39:00,
2013-01-15 06:41:00,74.9,66.0,30.11,ESE,118,16.1,17.3,74,0.00,,,0.01,TxWx,2013-01-15 11:41:00,
2013-01-15 06:46:00,75.0,66.0,30.11,East,96,13.0,13.0,74,0.00,,,0.01,TxWx,2013-01-15 11:46:00,
2013-01-15 06:47:00,75.0,66.0,30.12,ESE,118,13.6,13.6,74,0.00,,,0.01,TxWx,2013-01-15 11:47:00,
2013-01-15 06:51:00,74.7,66.0,30.11,ESE,118,14.2,14.2,75,0.00,,,0.01,TxWx,2013-01-15 11:51:00,
2013-01-15 06:52:00,75.0,66.0,30.12,ESE,118,11.8,14.2,74,0.00,,,0.01,TxWx,2013-01-15 11:52:00,
2013-01-15 06:53:00,74.7,66.0,30.12,East,96,14.2,14.2,74,0.00,,,0.01,TxWx,2013-01-15 11:53:00,
2013-01-15 06:55:00,75.3,66.0,30.11,ESE,118,11.1,11.1,75,0.00,,,0.01,TxWx,2013-01-15 11:55:00,
2013-01-15 06:56:00,74.7,66.0,30.12,ESE,118,11.8,11.8,74,0.00,,,0.01,TxWx,2013-01-15 11:56:00,
2013-01-15 06:57:00,74.9,66.0,30.12,SE,141,12.4,14.2,74,0.00,,,0.01,TxWx,2013-01-15 11:57:00,
2013-01-15 07:01:00,74.7,66.0,30.12,ESE,118,11.8,11.8,74,0.00,,,0.01,TxWx,2013-01-15 12:01:00,
2013-01-15 07:02:00,75.2,66.0,30.12,East,96,11.1,11.1,75,0.00,,,0.01,TxWx,2013-01-15 12:02:00,
2013-01-15 07:04:00,75.1,66.0,30.12,East,96,11.1,11.1,75,0.00,,,0.01,TxWx,2013-01-15 12:04:00,
2013-01-15 07:08:00,75.3,67.0,30.12,ESE,118,9.3,10.5,75,0.00,,,0.01,TxWx,2013-01-15 12:08:00,
2013-01-15 07:09:00,75.1,66.0,30.12,East,96,13.6,13.6,75,0.00,,,0.01,TxWx,2013-01-15 12:09:00,
2013-01-15 07:13:00,74.9,67.0,30.12,SE,141,11.1,11.1,75,0.00,,,0.01,TxWx,2013-01-15 12:13:00,
2013-01-15 07:14:00,75.0,66.0,30.12,ESE,118,13.0,14.9,75,0.00,,,0.01,TxWx,2013-01-15 12:14:00,
2013-01-15 07:15:00,75.2,67.0,30.12,ESE,118,14.9,14.9,75,0.00,,,0.01,TxWx,2013-01-15 12:15:00,
2013-01-15 07:18:00,74.9,67.0,30.12,East,96,13.0,13.0,75,0.00,,,0.01,TxWx,2013-01-15 12:18:00,
2013-01-15 07:19:00,74.8,66.0,30.12,ESE,118,11.8,13.6,75,0.00,,,0.01,TxWx,2013-01-15 12:19:00,
2013-01-15 07:21:00,74.8,66.0,30.12,SE,141,13.6,13.6,75,0.00,,,0.01,TxWx,2013-01-15 12:21:00,
2013-01-15 07:23:00,75.0,66.0,30.12,ESE,118,13.0,13.0,75,0.00,,,0.01,TxWx,2013-01-15 12:23:00,
2013-01-15 07:25:00,75.0,66.0,30.12,ESE,118,14.9,14.9,74,0.00,,,0.01,TxWx,2013-01-15 12:25:00,
2013-01-15 07:26:00,75.1,66.0,30.12,ESE,118,13.6,13.6,75,0.00,,,0.01,TxWx,2013-01-15 12:26:00,
2013-01-15 07:28:00,75.0,66.0,30.12,ESE,118,14.9,14.9,74,0.00,,,0.01,TxWx,2013-01-15 12:28:00,
2013-01-15 07:30:00,74.9,66.0,30.12,ESE,118,16.1,16.1,74,0.00,,,0.01,TxWx,2013-01-15 12:30:00,
2013-01-15 07:31:00,74.8,66.0,30.12,ESE,118,14.2,15.5,74,0.00,,,0.01,TxWx,2013-01-15 12:31:00,
2013-01-15 07:34:00,75.0,66.0,30.13,ESE,118,14.9,14.9,74,0.00,,,0.01,TxWx,2013-01-15 12:34:00,
2013-01-15 07:37:00,74.9,66.0,30.13,East,96,13.6,13.6,73,0.00,,,0.01,TxWx,2013-01-15 12:37:00,
2013-01-15 07:38:00,75.1,65.0,30.13,East,96,11.1,13.6,72,0.00,,,0.01,TxWx,2013-01-15 12:38:00,
2013-01-15 07:39:00,75.1,66.0,30.13,ESE,118,13.0,13.0,73,0.00,,,0.01,TxWx,2013-01-15 12:39:00,
2013-01-15 07:42:00,75.0,66.0,30.13,ESE,118,13.0,13.6,73,0.00,,,0.01,TxWx,2013-01-15 12:42:00,
2013-01-15 07:43:00,75.3,66.0,30.13,East,96,13.0,13.6,74,0.00,,,0.01,TxWx,2013-01-15 12:43:00,
2013-01-15 07:44:00,74.7,66.0,30.13,ESE,118,12.4,13.6,73,0.00,,,0.01,TxWx,2013-01-15 12:44:00,
2013-01-15 07:48:00,75.2,66.0,30.14,East,96,12.4,12.4,73,0.00,,,0.01,TxWx,2013-01-15 12:48:00,
2013-01-15 07:49:00,75.2,66.0,30.14,ESE,118,11.8,14.2,73,0.00,,,0.01,TxWx,2013-01-15 12:49:00,
2013-01-15 07:50:00,74.8,66.0,30.13,ESE,118,13.0,13.0,73,0.00,,,0.01,TxWx,2013-01-15 12:50:00,
2013-01-15 07:53:00,75.1,65.0,30.14,ESE,118,12.4,12.4,72,0.00,,,0.01,TxWx,2013-01-15 12:53:00,
2013-01-15 07:55:00,75.4,66.0,30.14,ESE,118,11.1,11.1,73,0.00,,,0.01,TxWx,2013-01-15 12:55:00,
2013-01-15 07:56:00,75.2,66.0,30.13,East,96,12.4,12.4,73,0.00,,,0.01,TxWx,2013-01-15 12:56:00,
2013-01-15 07:58:00,75.1,66.0,30.14,SE,141,13.0,13.0,73,0.00,,,0.01,TxWx,2013-01-15 12:58:00,
2013-01-15 08:01:00,75.1,66.0,30.14,ESE,118,13.6,13.6,73,0.00,,,0.01,TxWx,2013-01-15 13:01:00,
2013-01-15 08:03:00,74.9,65.0,30.14,ESE,118,12.4,14.9,72,0.00,,,0.01,TxWx,2013-01-15 13:03:00,
2013-01-15 08:04:00,75.0,65.0,30.14,SE,141,13.0,13.0,72,0.00,,,0.01,TxWx,2013-01-15 13:04:00,
2013-01-15 08:09:00,75.1,65.0,30.14,ESE,118,13.0,13.0,72,0.00,,,0.01,TxWx,2013-01-15 13:09:00,
2013-01-15 08:11:00,75.0,65.0,30.14,ESE,118,11.8,11.8,71,0.00,,,0.01,TxWx,2013-01-15 13:11:00,
2013-01-15 08:14:00,75.4,65.0,30.14,ESE,118,12.4,12.4,72,0.00,,,0.01,TxWx,2013-01-15 13:14:00,
2013-01-15 08:15:00,75.4,66.0,30.14,East,96,10.5,10.5,73,0.00,,,0.01,TxWx,2013-01-15 13:15:00,
2013-01-15 08:16:00,75.0,65.0,30.14,ESE,118,11.1,12.4,72,0.00,,,0.01,TxWx,2013-01-15 13:16:00,
2013-01-15 08:18:00,75.2,66.0,30.14,ESE,118,11.1,11.1,73,0.00,,,0.01,TxWx,2013-01-15 13:18:00,
2013-01-15 08:19:00,75.3,66.0,30.14,ESE,118,11.1,12.4,73,0.00,,,0.01,TxWx,2013-01-15 13:19:00,
2013-01-15 08:20:00,74.8,65.0,30.14,ESE,118,12.4,12.4,72,0.00,,,0.01,TxWx,2013-01-15 13:20:00,
2013-01-15 08:23:00,75.2,65.0,30.14,ESE,118,15.5,15.5,72,0.00,,,0.01,TxWx,2013-01-15 13:23:00,
2013-01-15 08:25:00,75.4,65.0,30.14,SE,141,11.1,11.1,71,0.00,,,0.01,TxWx,2013-01-15 13:25:00,
2013-01-15 08:26:00,75.5,65.0,30.14,ESE,118,9.3,9.9,71,0.00,,,0.01,TxWx,2013-01-15 13:26:00,
2013-01-15 08:29:00,75.7,66.0,30.14,East,96,9.9,9.9,72,0.00,,,0.01,TxWx,2013-01-15 13:29:00,
2013-01-15 08:30:00,76.0,66.0,30.14,ESE,118,11.1,11.1,73,0.00,,,0.01,TxWx,2013-01-15 13:30:00,
2013-01-15 08:31:00,75.5,65.0,30.14,ESE,118,12.4,13.0,72,0.00,,,0.01,TxWx,2013-01-15 13:31:00,
2013-01-15 08:34:00,75.5,66.0,30.14,ESE,118,11.8,11.8,71,0.00,,,0.01,TxWx,2013-01-15 13:34:00,
2013-01-15 08:36:00,75.8,66.0,30.14,SE,141,8.7,9.9,71,0.00,,,0.01,TxWx,2013-01-15 13:36:00,
2013-01-15 08:37:00,75.3,64.0,30.14,East,96,11.1,11.8,70,0.00,,,0.01,TxWx,2013-01-15 13:37:00,
2013-01-15 08:40:00,75.4,64.0,30.14,East,96,13.6,13.6,70,0.00,,,0.01,TxWx,2013-01-15 13:40:00,
2013-01-15 08:42:00,75.3,64.0,30.14,East,96,11.8,13.0,70,0.00,,,0.01,TxWx,2013-01-15 13:42:00,
2013-01-15 08:43:00,75.8,65.0,30.15,ESE,118,9.9,9.9,70,0.00,,,0.01,TxWx,2013-01-15 13:43:00,
2013-01-15 08:45:00,75.6,65.0,30.14,East,96,13.0,14.2,70,0.00,,,0.01,TxWx,2013-01-15 13:45:00,
2013-01-15 08:49:00,75.6,66.0,30.15,SE,141,11.1,11.8,71,0.00,,,0.01,TxWx,2013-01-15 13:49:00,
2013-01-15 08:52:00,75.0,64.0,30.15,ESE,118,11.8,12.4,70,0.00,,,0.01,TxWx,2013-01-15 13:52:00,
2013-01-15 08:54:00,75.2,64.0,30.15,ESE,118,13.6,16.1,70,0.00,,,0.01,TxWx,2013-01-15 13:54:00,
2013-01-15 08:55:00,75.3,64.0,30.15,ESE,118,12.4,12.4,70,0.00,,,0.01,TxWx,2013-01-15 13:55:00,
2013-01-15 08:56:00,75.2,64.0,30.15,ESE,118,11.1,11.1,69,0.00,,,0.01,TxWx,2013-01-15 13:56:00,
2013-01-15 08:58:00,75.6,65.0,30.15,ESE,118,9.9,9.9,70,0.00,,,0.01,TxWx,2013-01-15 13:58:00,
2013-01-15 09:00:00,75.8,66.0,30.15,ESE,118,8.7,9.3,71,0.00,,,0.01,TxWx,2013-01-15 14:00:00,
2013-01-15 09:01:00,75.4,65.0,30.15,SE,141,9.9,9.9,70,0.00,,,0.01,TxWx,2013-01-15 14:01:00,
2013-01-15 09:03:00,75.4,64.0,30.15,East,96,9.9,11.1,69,0.00,,,0.01,TxWx,2013-01-15 14:03:00,
2013-01-15 09:06:00,75.6,65.0,30.15,ESE,118,9.9,9.9,69,0.00,,,0.01,TxWx,2013-01-15 14:06:00,
2013-01-15 09:09:00,75.3,64.0,30.15,ESE,118,13.0,13.0,69,0.00,,,0.01,TxWx,2013-01-15 14:09:00,
2013-01-15 09:11:00,75.3,65.0,30.15,ESE,118,10.5,10.5,70,0.00,,,0.01,TxWx,2013-01-15 14:11:00,
2013-01-15 09:12:00,75.6,65.0,30.15,ESE,118,9.3,9.3,70,0.00,,,0.01,TxWx,2013-01-15 14:12:00,
2013-01-15 09:14:00,75.4,64.0,30.15,East,96,11.1,11.8,69,0.00,,,0.01,TxWx,2013-01-15 14:14:00,
2013-01-15 09:16:00,75.2,64.0,30.15,East,96,11.1,13.0,70,0.00,,,0.01,TxWx,2013-01-15 14:16:00,
2013-01-15 09:18:00,75.5,65.0,30.15,East,96,9.9,10.5,70,0.00,,,0.01,TxWx,2013-01-15 14:18:00,
2013-01-15 09:20:00,75.5,65.0,30.15,East,96,12.4,12.4,70,0.00,,,0.01,TxWx,2013-01-15 14:20:00,
2013-01-15 09:22:00,75.4,65.0,30.15,East,96,9.3,9.3,71,0.00,,,0.01,TxWx,2013-01-15 14:22:00,
2013-01-15 09:24:00,75.2,65.0,30.15,ESE,118,9.9,9.9,71,0.00,,,0.01,TxWx,2013-01-15 14:24:00,
2013-01-15 09:25:00,75.3,65.0,30.15,ESE,118,9.9,9.9,71,0.00,,,0.01,TxWx,2013-01-15 14:25:00,
2013-01-15 09:26:00,75.5,66.0,30.15,East,96,8.7,12.4,72,0.00,,,0.01,TxWx,2013-01-15 14:26:00,
2013-01-15 09:27:00,75.5,66.0,30.15,East,96,11.8,11.8,72,0.00,,,0.01,TxWx,2013-01-15 14:27:00,
2013-01-15 09:29:00,75.4,65.0,30.15,East,96,11.8,11.8,71,0.00,,,0.01,TxWx,2013-01-15 14:29:00,
2013-01-15 09:31:00,75.5,65.0,30.15,ESE,118,9.9,10.5,71,0.00,,,0.01,TxWx,2013-01-15 14:31:00,
2013-01-15 09:34:00,75.5,66.0,30.15,ESE,118,9.3,9.9,71,0.00,,,0.01,TxWx,2013-01-15 14:34:00,
2013-01-15 09:35:00,75.3,65.0,30.15,East,96,12.4,12.4,71,0.00,,,0.01,TxWx,2013-01-15 14:35:00,
2013-01-15 09:36:00,75.3,65.0,30.16,East,96,11.1,11.1,70,0.00,,,0.01,TxWx,2013-01-15 14:36:00,
2013-01-15 09:41:00,75.3,65.0,30.15,East,96,9.9,10.5,72,0.00,,,0.01,TxWx,2013-01-15 14:41:00,
2013-01-15 09:42:00,75.4,65.0,30.15,ESE,118,9.9,10.5,71,0.00,,,0.01,TxWx,2013-01-15 14:42:00,
2013-01-15 09:44:00,75.8,66.0,30.15,ESE,118,8.0,8.0,72,0.00,,,0.01,TxWx,2013-01-15 14:44:00,
2013-01-15 09:46:00,75.0,65.0,30.15,East,96,11.1,12.4,70,0.00,,,0.01,TxWx,2013-01-15 14:46:00,
2013-01-15 09:47:00,75.5,65.0,30.15,East,96,9.9,10.5,70,0.00,,,0.01,TxWx,2013-01-15 14:47:00,
2013-01-15 09:48:00,75.9,66.0,30.15,ESE,118,12.4,13.0,72,0.00,,,0.01,TxWx,2013-01-15 14:48:00,
2013-01-15 09:52:00,75.4,66.0,30.15,East,96,14.2,14.2,73,0.00,,,0.01,TxWx,2013-01-15 14:52:00,
2013-01-15 09:54:00,75.2,65.0,30.15,East,96,14.2,14.2,72,0.00,,,0.01,TxWx,2013-01-15 14:54:00,
2013-01-15 09:56:00,75.3,66.0,30.15,East,96,14.2,14.9,73,0.00,,,0.01,TxWx,2013-01-15 14:56:00,
2013-01-15 09:58:00,75.2,66.0,30.15,SE,141,13.0,13.0,73,0.00,,,0.01,TxWx,2013-01-15 14:58:00,
2013-01-15 09:59:00,75.2,66.0,30.15,ESE,118,13.6,13.6,73,0.00,,,0.01,TxWx,2013-01-15 14:59:00,
2013-01-15 10:02:00,75.1,66.0,30.15,East,96,14.2,14.2,73,0.00,,,0.01,TxWx,2013-01-15 15:02:00,
2013-01-15 10:04:00,75.3,66.0,30.15,ESE,118,9.9,9.9,73,0.00,,,0.01,TxWx,2013-01-15 15:04:00,
2013-01-15 10:05:00,75.3,66.0,30.15,ESE,118,11.1,12.4,74,0.00,,,0.01,TxWx,2013-01-15 15:05:00,
2013-01-15 10:07:00,75.3,66.0,30.15,East,96,11.8,11.8,74,0.00,,,0.01,TxWx,2013-01-15 15:07:00,
2013-01-15 10:10:00,75.2,66.0,30.15,East,96,11.1,12.4,73,0.00,,,0.01,TxWx,2013-01-15 15:10:00,
2013-01-15 10:12:00,74.9,66.0,30.15,East,96,11.8,11.8,73,0.00,,,0.01,TxWx,2013-01-15 15:12:00,
2013-01-15 10:13:00,75.0,66.0,30.15,East,96,12.4,13.6,73,0.00,,,0.01,TxWx,2013-01-15 15:13:00,
2013-01-15 10:16:00,75.1,66.0,30.15,ESE,118,18.6,18.6,73,0.00,,,0.01,TxWx,2013-01-15 15:16:00,
2013-01-15 10:18:00,74.7,66.0,30.15,East,96,17.9,17.9,73,0.00,,,0.01,TxWx,2013-01-15 15:18:00,
2013-01-15 10:19:00,74.9,66.0,30.15,ESE,118,14.9,14.9,73,0.00,,,0.01,TxWx,2013-01-15 15:19:00,
2013-01-15 10:22:00,74.7,65.0,30.15,ESE,118,13.6,14.2,72,0.00,,,0.01,TxWx,2013-01-15 15:22:00,
2013-01-15 10:24:00,75.0,66.0,30.15,ESE,118,11.1,11.1,73,0.00,,,0.01,TxWx,2013-01-15 15:24:00,
2013-01-15 10:28:00,75.0,65.0,30.15,East,96,13.6,14.9,72,0.00,,,0.01,TxWx,2013-01-15 15:28:00,
2013-01-15 10:30:00,75.1,66.0,30.15,East,96,14.2,14.2,73,0.00,,,0.01,TxWx,2013-01-15 15:30:00,
2013-01-15 10:31:00,75.0,66.0,30.14,ESE,118,14.9,16.1,73,0.00,,,0.01,TxWx,2013-01-15 15:31:00,
2013-01-15 10:33:00,75.0,66.0,30.15,ESE,118,14.9,14.9,73,0.00,,,0.01,TxWx,2013-01-15 15:33:00,
2013-01-15 10:35:00,75.1,66.0,30.15,ESE,118,13.6,13.6,73,0.00,,,0.01,TxWx,2013-01-15 15:35:00,
2013-01-15 10:36:00,75.3,66.0,30.14,East,96,11.8,12.4,73,0.00,,,0.01,TxWx,2013-01-15 15:36:00,
2013-01-15 10:39:00,75.0,66.0,30.14,ESE,118,11.1,11.1,73,0.00,,,0.01,TxWx,2013-01-15 15:39:00,
2013-01-15 10:41:00,75.2,66.0,30.14,ESE,118,12.4,13.6,73,0.00,,,0.01,TxWx,2013-01-15 15:41:00,
2013-01-15 10:44:00,75.3,66.0,30.14,East,96,15.5,15.5,74,0.00,,,0.01,TxWx,2013-01-15 15:44:00,
2013-01-15 10:46:00,74.9,66.0,30.14,ESE,118,17.3,17.9,74,0.00,,,0.01,TxWx,2013-01-15 15:46:00,
2013-01-15 10:49:00,75.0,66.0,30.14,ESE,118,12.4,14.2,74,0.00,,,0.01,TxWx,2013-01-15 15:49:00,
2013-01-15 10:50:00,75.2,66.0,30.14,ESE,118,13.6,14.9,74,0.00,,,0.01,TxWx,2013-01-15 15:50:00,
2013-01-15 10:51:00,74.8,66.0,30.14,ESE,118,15.5,17.3,74,0.00,,,0.01,TxWx,2013-01-15 15:51:00,
2013-01-15 10:52:00,74.9,66.0,30.14,East,96,14.2,14.2,74,0.00,,,0.01,TxWx,2013-01-15 15:52:00,
2013-01-15 10:54:00,75.0,66.0,30.14,East,96,13.6,13.6,74,0.00,,,0.01,TxWx,2013-01-15 15:54:00,
2013-01-15 10:55:00,74.9,66.0,30.14,ESE,118,13.0,15.5,75,0.00,,,0.01,TxWx,2013-01-15 15:55:00,
2013-01-15 10:57:00,75.1,66.0,30.13,East,96,13.6,13.6,75,0.00,,,0.01,TxWx,2013-01-15 15:57:00,
2013-01-15 11:00:00,74.9,66.0,30.13,ESE,118,14.9,14.9,75,0.00,,,0.01,TxWx,2013-01-15 16:00:00,
2013-01-15 11:01:00,74.8,66.0,30.13,ESE,118,14.9,14.9,75,0.00,,,0.01,TxWx,2013-01-15 16:01:00,
2013-01-15 11:05:00,74.9,66.0,30.13,ESE,118,11.8,12.4,74,0.00,,,0.01,TxWx,2013-01-15 16:05:00,
2013-01-15 11:06:00,75.0,66.0,30.13,SE,141,11.8,13.6,74,0.00,,,0.01,TxWx,2013-01-15 16:06:00,
2013-01-15 11:08:00,74.7,66.0,30.13,SE,141,10.5,12.4,74,0.00,,,0.01,TxWx,2013-01-15 16:08:00,
2013-01-15 11:11:00,74.9,66.0,30.13,East,96,12.4,13.6,73,0.00,,,0.01,TxWx,2013-01-15 16:11:00,
2013-01-15 11:12:00,74.9,66.0,30.13,SE,141,13.6,13.6,73,0.00,,,0.01,TxWx,2013-01-15 16:12:00,
2013-01-15 11:15:00,75.3,66.0,30.13,ESE,118,11.1,13.0,73,0.00,,,0.01,TxWx,2013-01-15 16:15:00,
2013-01-15 11:17:00,75.4,66.0,30.13,ESE,118,14.9,14.9,74,0.00,,,0.01,TxWx,2013-01-15 16:17:00,
2013-01-15 11:20:00,75.3,66.0,30.13,East,96,14.2,14.2,74,0.00,,,0.01,TxWx,2013-01-15 16:20:00,
2013-01-15 11:23:00,75.0,66.0,30.13,SE,141,9.9,12.4,73,0.00,,,0.01,TxWx,2013-01-15 16:23:00,
2013-01-15 11:24:00,75.1,66.0,30.12,East,96,13.0,13.6,73,0.00,,,0.01,TxWx,2013-01-15 16:24:00,
2013-01-15 11:25:00,75.5,67.0,30.13,ESE,118,13.0,13.0,74,0.00,,,0.01,TxWx,2013-01-15 16:25:00,
2013-01-15 11:26:00,75.2,66.0,30.13,ESE,118,13.0,13.0,74,0.00,,,0.01,TxWx,2013-01-15 16:26:00,
2013-01-15 11:29:00,75.4,66.0,30.13,ESE,118,11.1,11.1,73,0.00,,,0.01,TxWx,2013-01-15 16:29:00,
2013-01-15 11:30:00,75.2,66.0,30.13,ESE,118,12.4,13.0,73,0.00,,,0.01,TxWx,2013-01-15 16:30:00,
2013-01-15 11:32:00,75.3,65.0,30.12,East,96,10.5,11.8,72,0.00,,,0.01,TxWx,2013-01-15 16:32:00,
2013-01-15 11:36:00,75.1,66.0,30.12,East,96,13.0,14.2,74,0.00,,,0.01,TxWx,2013-01-15 16:36:00,
2013-01-15 11:37:00,75.4,66.0,30.12,ESE,118,13.6,13.6,74,0.00,,,0.01,TxWx,2013-01-15 16:37:00,
2013-01-15 11:39:00,75.4,66.0,30.12,ESE,118,11.1,12.4,74,0.00,,,0.01,TxWx,2013-01-15 16:39:00,
2013-01-15 11:42:00,75.7,67.0,30.12,ESE,118,9.9,11.1,74,0.00,,,0.01,TxWx,2013-01-15 16:42:00,
2013-01-15 11:43:00,75.3,66.0,30.12,ESE,118,13.6,14.2,74,0.00,,,0.01,TxWx,2013-01-15 16:43:00,
2013-01-15 11:47:00,75.5,66.0,30.12,ESE,118,11.8,13.0,74,0.00,,,0.01,TxWx,2013-01-15 16:47:00,
2013-01-15 11:48:00,75.9,67.0,30.12,ESE,118,11.1,11.8,74,0.00,,,0.01,TxWx,2013-01-15 16:48:00,
2013-01-15 11:51:00,75.5,66.0,30.12,ESE,118,12.4,12.4,73,0.00,,,0.01,TxWx,2013-01-15 16:51:00,
2013-01-15 11:52:00,75.7,67.0,30.12,ESE,118,14.2,14.2,73,0.00,,,0.01,TxWx,2013-01-15 16:52:00,
2013-01-15 11:53:00,75.8,67.0,30.12,ESE,118,13.6,13.6,74,0.00,,,0.01,TxWx,2013-01-15 16:53:00,
2013-01-15 11:55:00,75.6,67.0,30.12,East,96,13.0,13.0,74,0.00,,,0.01,TxWx,2013-01-15 16:55:00,
2013-01-15 11:57:00,75.2,66.0,30.12,ESE,118,13.6,13.6,73,0.00,,,0.01,TxWx,2013-01-15 16:57:00,
2013-01-15 11:58:00,75.6,67.0,30.11,ESE,118,10.5,10.5,74,0.00,,,0.01,TxWx,2013-01-15 16:58:00,
2013-01-15 11:59:00,75.7,67.0,30.12,ESE,118,10.5,10.5,74,0.00,,,0.01,TxWx,2013-01-15 16:59:00,
2013-01-15 12:02:00,75.3,66.0,30.12,SE,141,9.3,11.1,73,0.00,,,0.01,TxWx,2013-01-15 17:02:00,
2013-01-15 12:03:00,75.2,66.0,30.11,ESE,118,12.4,12.4,73,0.00,,,0.01,TxWx,2013-01-15 17:03:00,
2013-01-15 12:04:00,75.5,66.0,30.11,ESE,118,12.4,14.9,73,0.00,,,0.01,TxWx,2013-01-15 17:04:00,
2013-01-15 12:07:00,75.4,66.0,30.11,ESE,118,13.6,13.6,73,0.00,,,0.01,TxWx,2013-01-15 17:07:00,
2013-01-15 12:08:00,75.3,66.0,30.11,East,96,13.0,13.0,73,0.00,,,0.01,TxWx,2013-01-15 17:08:00,
2013-01-15 12:09:00,75.7,67.0,30.11,ESE,118,11.8,11.8,74,0.00,,,0.01,TxWx,2013-01-15 17:09:00,
2013-01-15 12:10:00,75.5,66.0,30.11,SE,141,13.0,13.0,74,0.00,,,0.01,TxWx,2013-01-15 17:10:00,
2013-01-15 12:13:00,75.4,66.0,30.11,ESE,118,12.4,13.0,74,0.00,,,0.01,TxWx,2013-01-15 17:13:00,
2013-01-15 12:15:00,75.3,66.0,30.11,ESE,118,13.6,13.6,74,0.00,,,0.01,TxWx,2013-01-15 17:15:00,
2013-01-15 12:16:00,75.3,66.0,30.11,ESE,118,13.0,13.6,75,0.00,,,0.01,TxWx,2013-01-15 17:16:00,
2013-01-15 12:19:00,75.3,66.0,30.11,East,96,12.4,12.4,75,0.00,,,0.01,TxWx,2013-01-15 17:19:00,
2013-01-15 12:20:00,75.3,66.0,30.11,ESE,118,13.0,13.0,75,0.00,,,0.01,TxWx,2013-01-15 17:20:00,
2013-01-15 12:22:00,75.5,66.0,30.11,ESE,118,13.6,13.6,75,0.00,,,0.01,TxWx,2013-01-15 17:22:00,
2013-01-15 12:23:00,75.3,66.0,30.10,East,96,13.0,16.1,74,0.00,,,0.01,TxWx,2013-01-15 17:23:00,
2013-01-15 12:26:00,75.4,66.0,30.10,ESE,118,13.0,13.0,74,0.00,,,0.01,TxWx,2013-01-15 17:26:00,
2013-01-15 12:27:00,75.3,66.0,30.10,East,96,16.1,17.9,74,0.00,,,0.01,TxWx,2013-01-15 17:27:00,
2013-01-15 12:28:00,75.3,66.0,30.10,East,96,15.5,16.1,74,0.00,,,0.01,TxWx,2013-01-15 17:28:00,
2013-01-15 12:31:00,74.9,66.0,30.10,ESE,118,13.6,14.9,74,0.00,,,0.01,TxWx,2013-01-15 17:31:00,
2013-01-15 12:33:00,75.3,66.0,30.10,ESE,118,15.5,15.5,74,0.00,,,0.01,TxWx,2013-01-15 17:33:00,
2013-01-15 12:34:00,75.5,66.0,30.10,East,96,14.9,14.9,75,0.00,,,0.01,TxWx,2013-01-15 17:34:00,
2013-01-15 12:35:00,75.6,67.0,30.10,ESE,118,12.4,13.6,75,0.00,,,0.01,TxWx,2013-01-15 17:35:00,
2013-01-15 12:36:00,75.4,66.0,30.10,SE,141,13.6,14.2,75,0.00,,,0.01,TxWx,2013-01-15 17:36:00,
2013-01-15 12:39:00,75.3,66.0,30.10,ESE,118,11.8,13.6,73,0.00,,,0.01,TxWx,2013-01-15 17:39:00,
2013-01-15 12:40:00,75.8,67.0,30.10,ESE,118,11.1,13.0,74,0.00,,,0.01,TxWx,2013-01-15 17:40:00,
2013-01-15 12:41:00,75.6,67.0,30.10,SE,141,12.4,13.0,73,0.00,,,0.01,TxWx,2013-01-15 17:41:00,
2013-01-15 12:43:00,75.4,66.0,30.09,ESE,118,14.2,14.2,73,0.00,,,0.01,TxWx,2013-01-15 17:43:00,
2013-01-15 12:45:00,75.1,65.0,30.10,ESE,118,11.8,11.8,72,0.00,,,0.01,TxWx,2013-01-15 17:45:00,
2013-01-15 12:46:00,75.5,66.0,30.10,ESE,118,13.0,13.0,73,0.00,,,0.01,TxWx,2013-01-15 17:46:00,
2013-01-15 12:49:00,75.7,66.0,30.10,ESE,118,11.8,14.2,73,0.00,,,0.01,TxWx,2013-01-15 17:49:00,
2013-01-15 12:50:00,76.0,66.0,30.10,ESE,118,11.1,11.1,73,0.00,,,0.01,TxWx,2013-01-15 17:50:00,
2013-01-15 12:52:00,75.7,66.0,30.10,SE,141,11.1,11.8,73,0.00,,,0.01,TxWx,2013-01-15 17:52:00,
2013-01-15 12:53:00,75.6,66.0,30.10,ESE,118,11.8,13.0,72,0.00,,,0.01,TxWx,2013-01-15 17:53:00,
2013-01-15 12:55:00,75.8,66.0,30.10,SE,141,10.5,11.1,72,0.00,,,0.01,TxWx,2013-01-15 17:55:00,
2013-01-15 12:57:00,75.2,65.0,30.10,ESE,118,12.4,12.4,72,0.00,,,0.01,TxWx,2013-01-15 17:57:00,
2013-01-15 12:58:00,75.3,65.0,30.10,ESE,118,11.8,11.8,72,0.00,,,0.01,TxWx,2013-01-15 17:58:00,
2013-01-15 13:00:00,75.8,66.0,30.10,SE,141,11.1,11.1,73,0.00,,,0.01,TxWx,2013-01-15 18:00:00,
2013-01-15 13:04:00,75.3,65.0,30.10,East,96,11.8,11.8,71,0.00,,,0.01,TxWx,2013-01-15 18:04:00,
2013-01-15 13:06:00,75.4,65.0,30.10,East,96,10.5,10.5,72,0.00,,,0.01,TxWx,2013-01-15 18:06:00,
2013-01-15 13:11:00,75.6,66.0,30.09,ESE,118,8.7,9.3,72,0.00,,,0.01,TxWx,2013-01-15 18:11:00,
2013-01-15 13:12:00,75.5,65.0,30.09,SE,141,11.1,11.8,72,0.00,,,0.01,TxWx,2013-01-15 18:12:00,
2013-01-15 13:13:00,75.7,66.0,30.09,ESE,118,9.9,9.9,72,0.00,,,0.01,TxWx,2013-01-15 18:13:00,
2013-01-15 13:16:00,75.5,66.0,30.09,ESE,118,9.3,9.3,71,0.00,,,0.01,TxWx,2013-01-15 18:16:00,
2013-01-15 13:18:00,75.8,66.0,30.09,ESE,118,10.5,10.5,71,0.00,,,0.01,TxWx,2013-01-15 18:18:00,
2013-01-15 13:23:00,75.6,66.0,30.09,SE,141,9.9,9.9,72,0.00,,,0.01,TxWx,2013-01-15 18:23:00,
2013-01-15 13:24:00,75.6,66.0,30.09,ESE,118,10.5,11.8,72,0.00,,,0.01,TxWx,2013-01-15 18:24:00,
2013-01-15 13:25:00,76.1,66.0,30.09,ESE,118,9.9,9.9,73,0.00,,,0.01,TxWx,2013-01-15 18:25:00,
2013-01-15 13:29:00,75.3,65.0,30.09,ESE,118,11.1,12.4,71,0.00,,,0.01,TxWx,2013-01-15 18:29:00,
2013-01-15 13:30:00,75.4,65.0,30.09,ESE,118,11.1,11.1,71,0.00,,,0.01,TxWx,2013-01-15 18:30:00,
2013-01-15 13:32:00,75.6,66.0,30.09,ESE,118,9.3,9.9,71,0.00,,,0.01,TxWx,2013-01-15 18:32:00,
2013-01-15 13:34:00,76.0,66.0,30.09,SE,141,11.1,11.1,72,0.00,,,0.01,TxWx,2013-01-15 18:34:00,
2013-01-15 13:35:00,75.7,66.0,30.09,SE,141,9.9,9.9,71,0.00,,,0.01,TxWx,2013-01-15 18:35:00,
2013-01-15 13:37:00,75.5,66.0,30.09,ESE,118,8.0,9.9,71,0.00,,,0.01,TxWx,2013-01-15 18:37:00,
2013-01-15 13:38:00,75.4,65.0,30.09,SE,141,10.5,10.5,71,0.00,,,0.01,TxWx,2013-01-15 18:38:00,
2013-01-15 13:40:00,75.7,66.0,30.09,ESE,118,9.9,10.5,71,0.00,,,0.01,TxWx,2013-01-15 18:40:00,
2013-01-15 13:42:00,75.4,65.0,30.09,SE,141,9.3,10.5,71,0.00,,,0.01,TxWx,2013-01-15 18:42:00,
2013-01-15 13:46:00,75.7,66.0,30.09,East,96,9.9,12.4,72,0.00,,,0.01,TxWx,2013-01-15 18:46:00,
2013-01-15 13:48:00,75.8,66.0,30.09,East,96,9.9,11.8,72,0.00,,,0.01,TxWx,2013-01-15 18:48:00,
2013-01-15 13:50:00,75.2,65.0,30.09,East,96,11.1,11.1,70,0.00,,,0.01,TxWx,2013-01-15 18:50:00,
2013-01-15 13:52:00,75.0,65.0,30.09,ESE,118,9.3,9.3,70,0.00,,,0.01,TxWx,2013-01-15 18:52:00,
2013-01-15 13:54:00,74.9,65.0,30.09,SE,141,10.5,11.1,70,0.00,,,0.01,TxWx,2013-01-15 18:54:00,
2013-01-15 13:55:00,75.4,65.0,30.09,SE,141,9.9,9.9,71,0.00,,,0.01,TxWx,2013-01-15 18:55:00,
2013-01-15 13:59:00,75.3,65.0,30.09,ESE,118,10.5,11.1,72,0.00,,,0.01,TxWx,2013-01-15 18:59:00,
2013-01-15 14:00:00,75.5,66.0,30.09,ESE,118,9.3,9.3,72,0.00,,,0.01,TxWx,2013-01-15 19:00:00,
2013-01-15 14:03:00,75.3,65.0,30.09,ESE,118,9.3,9.3,72,0.00,,,0.01,TxWx,2013-01-15 19:03:00,
2013-01-15 14:06:00,75.1,65.0,30.09,SE,141,8.0,8.0,71,0.00,,,0.01,TxWx,2013-01-15 19:06:00,
2013-01-15 14:09:00,75.5,66.0,30.09,SE,141,11.1,11.1,72,0.00,,,0.01,TxWx,2013-01-15 19:09:00,
2013-01-15 14:10:00,75.6,66.0,30.09,SE,141,9.3,10.5,72,0.00,,,0.01,TxWx,2013-01-15 19:10:00,
2013-01-15 14:11:00,75.8,66.0,30.09,SE,141,8.7,8.7,72,0.00,,,0.01,TxWx,2013-01-15 19:11:00,
2013-01-15 14:14:00,75.0,65.0,30.09,SE,141,9.9,10.5,71,0.00,,,0.01,TxWx,2013-01-15 19:14:00,
2013-01-15 14:16:00,75.4,65.0,30.09,SE,141,11.1,11.8,72,0.00,,,0.01,TxWx,2013-01-15 19:16:00,
2013-01-15 14:17:00,75.5,66.0,30.08,ESE,118,9.3,9.3,71,0.00,,,0.01,TxWx,2013-01-15 19:17:00,
2013-01-15 14:19:00,75.2,65.0,30.09,SE,141,11.8,12.4,71,0.00,,,0.01,TxWx,2013-01-15 19:19:00,
2013-01-15 14:20:00,75.4,65.0,30.09,SE,141,11.1,11.1,71,0.00,,,0.01,TxWx,2013-01-15 19:20:00,
2013-01-15 14:23:00,75.7,66.0,30.09,East,96,8.7,8.7,71,0.00,,,0.01,TxWx,2013-01-15 19:23:00,
2013-01-15 14:24:00,75.6,66.0,30.09,ESE,118,11.1,11.1,72,0.00,,,0.01,TxWx,2013-01-15 19:24:00,
2013-01-15 14:25:00,75.8,66.0,30.08,ESE,118,9.3,9.9,71,0.00,,,0.01,TxWx,2013-01-15 19:25:00,
2013-01-15 14:28:00,75.5,64.0,30.08,ESE,118,8.7,8.7,70,0.00,,,0.01,TxWx,2013-01-15 19:28:00,
2013-01-15 14:29:00,75.5,65.0,30.09,ESE,118,11.1,13.0,71,0.00,,,0.01,TxWx,2013-01-15 19:29:00,
2013-01-15 14:30:00,75.5,65.0,30.08,ESE,118,10.5,10.5,70,0.00,,,0.01,TxWx,2013-01-15 19:30:00,
2013-01-15 14:33:00,75.7,66.0,30.09,ESE,118,11.1,11.1,71,0.00,,,0.01,TxWx,2013-01-15 19:33:00,
2013-01-15 14:35:00,75.6,65.0,30.08,ESE,118,9.3,9.9,70,0.00,,,0.01,TxWx,2013-01-15 19:35:00,
2013-01-15 14:37:00,75.9,66.0,30.08,SE,141,8.0,8.0,71,0.00,,,0.01,TxWx,2013-01-15 19:37:00,
2013-01-15 14:39:00,75.7,66.0,30.08,SE,141,9.9,11.1,71,0.00,,,0.01,TxWx,2013-01-15 19:39:00,
2013-01-15 14:40:00,75.8,66.0,30.08,ESE,118,9.9,9.9,71,0.00,,,0.01,TxWx,2013-01-15 19:40:00,
2013-01-15 14:42:00,75.2,64.0,30.08,SE,141,11.1,11.1,70,0.00,,,0.01,TxWx,2013-01-15 19:42:00,
2013-01-15 14:44:00,75.2,65.0,30.08,ESE,118,10.5,11.8,70,0.00,,,0.01,TxWx,2013-01-15 19:44:00,
2013-01-15 14:46:00,75.5,64.0,30.08,ESE,118,11.8,11.8,70,0.00,,,0.01,TxWx,2013-01-15 19:46:00,
2013-01-15 14:49:00,75.2,64.0,30.08,SE,141,9.9,9.9,70,0.00,,,0.01,TxWx,2013-01-15 19:49:00,
2013-01-15 14:52:00,75.7,66.0,30.08,SE,141,11.1,12.4,71,0.00,,,0.01,TxWx,2013-01-15 19:52:00,
2013-01-15 14:54:00,75.4,65.0,30.08,ESE,118,11.1,11.1,70,0.00,,,0.01,TxWx,2013-01-15 19:54:00,
2013-01-15 14:55:00,75.5,65.0,30.08,ESE,118,8.7,9.3,70,0.00,,,0.01,TxWx,2013-01-15 19:55:00,
2013-01-15 14:57:00,75.3,65.0,30.08,SE,141,11.8,11.8,70,0.00,,,0.01,TxWx,2013-01-15 19:57:00,
2013-01-15 14:58:00,75.4,65.0,30.08,ESE,118,11.8,11.8,71,0.00,,,0.01,TxWx,2013-01-15 19:58:00,
2013-01-15 14:59:00,75.5,65.0,30.08,ESE,118,10.5,10.5,70,0.00,,,0.01,TxWx,2013-01-15 19:59:00,
2013-01-15 15:03:00,76.1,66.0,30.08,ESE,118,11.8,11.8,72,0.00,,,0.01,TxWx,2013-01-15 20:03:00,
2013-01-15 15:05:00,75.2,64.0,30.08,East,96,10.5,10.5,70,0.00,,,0.01,TxWx,2013-01-15 20:05:00,
2013-01-15 15:06:00,75.9,66.0,30.08,ESE,118,12.4,12.4,71,0.00,,,0.01,TxWx,2013-01-15 20:06:00,
2013-01-15 15:07:00,75.3,64.0,30.08,ESE,118,9.9,11.8,70,0.00,,,0.01,TxWx,2013-01-15 20:07:00,
2013-01-15 15:08:00,75.8,66.0,30.08,ESE,118,10.5,10.5,71,0.00,,,0.01,TxWx,2013-01-15 20:08:00,
2013-01-15 15:10:00,76.0,66.0,30.08,ESE,118,9.3,9.9,72,0.00,,,0.01,TxWx,2013-01-15 20:10:00,
2013-01-15 15:11:00,75.7,66.0,30.08,SE,141,10.5,10.5,71,0.00,,,0.01,TxWx,2013-01-15 20:11:00,
2013-01-15 15:12:00,75.6,65.0,30.08,ESE,118,9.9,11.1,70,0.00,,,0.01,TxWx,2013-01-15 20:12:00,
2013-01-15 15:15:00,75.9,66.0,30.08,East,96,9.3,9.3,71,0.00,,,0.01,TxWx,2013-01-15 20:15:00,
2013-01-15 15:16:00,75.9,66.0,30.08,ESE,118,9.3,9.3,71,0.00,,,0.01,TxWx,2013-01-15 20:16:00,
2013-01-15 15:17:00,75.8,66.0,30.08,ESE,118,8.0,9.3,71,0.00,,,0.01,TxWx,2013-01-15 20:17:00,
2013-01-15 15:18:00,75.9,66.0,30.08,East,96,12.4,12.4,71,0.00,,,0.01,TxWx,2013-01-15 20:18:00,
2013-01-15 15:23:00,75.8,66.0,30.08,ESE,118,8.7,8.7,71,0.00,,,0.01,TxWx,2013-01-15 20:23:00,
2013-01-15 15:25:00,75.6,66.0,30.08,ESE,118,9.9,9.9,71,0.00,,,0.01,TxWx,2013-01-15 20:25:00,
2013-01-15 15:28:00,75.7,66.0,30.08,ESE,118,9.9,10.5,72,0.00,,,0.01,TxWx,2013-01-15 20:28:00,
2013-01-15 15:30:00,75.4,65.0,30.08,ESE,118,9.3,9.9,71,0.00,,,0.01,TxWx,2013-01-15 20:30:00,
2013-01-15 15:34:00,75.0,65.0,30.08,East,96,11.8,12.4,71,0.00,,,0.01,TxWx,2013-01-15 20:34:00,
2013-01-15 15:35:00,75.4,65.0,30.08,East,96,8.7,8.7,71,0.00,,,0.01,TxWx,2013-01-15 20:35:00,
2013-01-15 15:36:00,75.0,65.0,30.08,ESE,118,9.9,11.8,71,0.00,,,0.01,TxWx,2013-01-15 20:36:00,
2013-01-15 15:37:00,75.0,65.0,30.08,SE,141,9.9,11.1,71,0.00,,,0.01,TxWx,2013-01-15 20:37:00,
2013-01-15 15:39:00,75.7,66.0,30.08,ESE,118,8.0,8.7,72,0.00,,,0.01,TxWx,2013-01-15 20:39:00,
2013-01-15 15:40:00,75.4,65.0,30.08,East,96,9.3,10.5,72,0.00,,,0.01,TxWx,2013-01-15 20:40:00,
2013-01-15 15:43:00,75.3,65.0,30.09,ESE,118,6.8,8.0,71,0.00,,,0.01,TxWx,2013-01-15 20:43:00,
2013-01-15 15:44:00,75.1,65.0,30.08,East,96,9.3,10.5,71,0.00,,,0.01,TxWx,2013-01-15 20:44:00,
2013-01-15 15:45:00,75.1,65.0,30.08,East,96,9.9,11.8,71,0.00,,,0.01,TxWx,2013-01-15 20:45:00,
2013-01-15 15:48:00,75.4,65.0,30.08,ESE,118,9.9,9.9,71,0.00,,,0.01,TxWx,2013-01-15 20:48:00,
2013-01-15 15:49:00,75.2,65.0,30.08,ESE,118,9.3,10.5,71,0.00,,,0.01,TxWx,2013-01-15 20:49:00,
2013-01-15 15:51:00,75.2,65.0,30.08,East,96,7.4,7.4,71,0.00,,,0.01,TxWx,2013-01-15 20:51:00,
2013-01-15 15:54:00,75.0,65.0,30.08,ESE,118,11.1,11.8,71,0.00,,,0.01,TxWx,2013-01-15 20:54:00,
2013-01-15 15:55:00,75.0,65.0,30.08,East,96,11.8,11.8,70,0.00,,,0.01,TxWx,2013-01-15 20:55:00,
2013-01-15 15:58:00,74.9,65.0,30.08,ESE,118,8.7,8.7,70,0.00,,,0.01,TxWx,2013-01-15 20:58:00,
2013-01-15 16:00:00,75.3,65.0,30.09,ESE,118,8.7,8.7,70,0.00,,,0.01,TxWx,2013-01-15 21:00:00,
2013-01-15 16:01:00,75.3,65.0,30.08,ESE,118,9.9,10.5,71,0.00,,,0.01,TxWx,2013-01-15 21:01:00,
2013-01-15 16:05:00,75.1,65.0,30.08,ESE,118,9.3,9.9,70,0.00,,,0.01,TxWx,2013-01-15 21:05:00,
2013-01-15 16:06:00,75.3,65.0,30.09,ESE,118,7.4,8.7,70,0.00,,,0.01,TxWx,2013-01-15 21:06:00,
2013-01-15 16:10:00,75.0,65.0,30.09,ESE,118,8.7,9.3,70,0.00,,,0.01,TxWx,2013-01-15 21:10:00,
2013-01-15 16:11:00,75.3,65.0,30.09,East,96,7.4,7.4,71,0.00,,,0.01,TxWx,2013-01-15 21:11:00,
2013-01-15 16:12:00,75.4,65.0,30.09,ESE,118,8.0,9.3,71,0.00,,,0.01,TxWx,2013-01-15 21:12:00,
2013-01-15 16:14:00,74.9,64.0,30.09,ESE,118,8.0,8.7,69,0.00,,,0.01,TxWx,2013-01-15 21:14:00,
2013-01-15 16:16:00,75.2,64.0,30.09,ESE,118,6.2,7.4,70,0.00,,,0.01,TxWx,2013-01-15 21:16:00,
2013-01-15 16:17:00,75.3,65.0,30.09,ESE,118,7.4,9.3,70,0.00,,,0.01,TxWx,2013-01-15 21:17:00,
2013-01-15 16:18:00,75.1,65.0,30.09,ESE,118,8.7,10.5,70,0.00,,,0.01,TxWx,2013-01-15 21:18:00,
2013-01-15 16:19:00,75.0,64.0,30.09,ESE,118,8.7,8.7,70,0.00,,,0.01,TxWx,2013-01-15 21:19:00,
2013-01-15 16:22:00,75.2,65.0,30.09,SE,141,7.4,7.4,70,0.00,,,0.01,TxWx,2013-01-15 21:22:00,
2013-01-15 16:23:00,75.3,65.0,30.09,ESE,118,8.7,9.3,71,0.00,,,0.01,TxWx,2013-01-15 21:23:00,
2013-01-15 16:25:00,74.9,64.0,30.09,ESE,118,7.4,7.4,70,0.00,,,0.01,TxWx,2013-01-15 21:25:00,
2013-01-15 16:26:00,74.8,64.0,30.09,East,96,9.3,9.3,69,0.00,,,0.01,TxWx,2013-01-15 21:26:00,
2013-01-15 16:28:00,75.0,64.0,30.09,ESE,118,8.0,8.0,70,0.00,,,0.01,TxWx,2013-01-15 21:28:00,
2013-01-15 16:30:00,75.0,65.0,30.10,SE,141,8.7,9.9,70,0.00,,,0.01,TxWx,2013-01-15 21:30:00,
2013-01-15 16:31:00,75.2,65.0,30.09,ESE,118,8.0,8.0,70,0.00,,,0.01,TxWx,2013-01-15 21:31:00,
2013-01-15 16:35:00,74.9,64.0,30.10,ESE,118,8.7,9.9,70,0.00,,,0.01,TxWx,2013-01-15 21:35:00,
2013-01-15 16:36:00,75.1,64.0,30.10,ESE,118,8.0,8.7,70,0.00,,,0.01,TxWx,2013-01-15 21:36:00,
2013-01-15 16:39:00,75.3,65.0,30.10,East,96,7.4,8.7,71,0.00,,,0.01,TxWx,2013-01-15 21:39:00,
2013-01-15 16:41:00,74.9,64.0,30.10,East,96,8.0,8.0,70,0.00,,,0.01,TxWx,2013-01-15 21:41:00,
2013-01-15 16:44:00,75.1,64.0,30.10,ESE,118,8.7,8.7,70,0.00,,,0.01,TxWx,2013-01-15 21:44:00,
2013-01-15 16:45:00,75.0,65.0,30.10,East,96,7.4,8.0,70,0.00,,,0.01,TxWx,2013-01-15 21:45:00,
2013-01-15 16:47:00,75.0,65.0,30.10,ESE,118,8.7,8.7,70,0.00,,,0.01,TxWx,2013-01-15 21:47:00,
2013-01-15 16:49:00,74.9,64.0,30.10,ESE,118,8.0,8.7,69,0.00,,,0.01,TxWx,2013-01-15 21:49:00,
2013-01-15 16:50:00,75.0,64.0,30.10,ESE,118,8.0,8.7,70,0.00,,,0.01,TxWx,2013-01-15 21:50:00,
2013-01-15 16:51:00,75.3,65.0,30.10,East,96,7.4,7.4,70,0.00,,,0.01,TxWx,2013-01-15 21:51:00,
2013-01-15 16:52:00,75.0,64.0,30.10,East,96,6.8,6.8,70,0.00,,,0.01,TxWx,2013-01-15 21:52:00,
2013-01-15 16:56:00,75.4,65.0,30.10,East,96,8.0,8.7,71,0.00,,,0.01,TxWx,2013-01-15 21:56:00,
2013-01-15 16:58:00,75.2,65.0,30.10,ESE,118,8.0,8.0,71,0.00,,,0.01,TxWx,2013-01-15 21:58:00,
2013-01-15 17:01:00,75.3,65.0,30.10,ESE,118,7.4,8.7,71,0.00,,,0.01,TxWx,2013-01-15 22:01:00,
2013-01-15 17:05:00,74.8,65.0,30.10,East,96,10.5,10.5,70,0.00,,,0.01,TxWx,2013-01-15 22:05:00,
2013-01-15 17:06:00,74.9,64.0,30.10,East,96,8.0,8.7,70,0.00,,,0.01,TxWx,2013-01-15 22:06:00,
2013-01-15 17:11:00,75.0,65.0,30.10,ESE,118,9.3,9.3,70,0.00,,,0.01,TxWx,2013-01-15 22:11:00,
2013-01-15 17:12:00,74.8,65.0,30.10,East,96,11.1,11.1,70,0.00,,,0.01,TxWx,2013-01-15 22:12:00,
2013-01-15 17:17:00,74.9,64.0,30.11,SE,141,8.0,8.7,70,0.00,,,0.01,TxWx,2013-01-15 22:17:00,
2013-01-15 17:19:00,75.0,65.0,30.10,ESE,118,5.6,5.6,70,0.00,,,0.01,TxWx,2013-01-15 22:19:00,
2013-01-15 17:24:00,75.0,65.0,30.10,SE,141,6.2,6.2,71,0.00,,,0.01,TxWx,2013-01-15 22:24:00,
2013-01-15 17:26:00,75.1,65.0,30.10,East,96,8.0,8.0,70,0.00,,,0.01,TxWx,2013-01-15 22:26:00,
2013-01-15 17:29:00,75.0,65.0,30.10,East,96,8.0,8.0,70,0.00,,,0.01,TxWx,2013-01-15 22:29:00,
2013-01-15 17:30:00,75.1,65.0,30.10,ESE,118,9.9,9.9,71,0.00,,,0.01,TxWx,2013-01-15 22:30:00,
2013-01-15 17:31:00,75.0,65.0,30.10,ESE,118,6.2,7.4,70,0.00,,,0.01,TxWx,2013-01-15 22:31:00,
2013-01-15 17:33:00,75.1,65.0,30.10,ESE,118,6.8,6.8,71,0.00,,,0.01,TxWx,2013-01-15 22:33:00,
2013-01-15 17:35:00,75.1,65.0,30.10,ESE,118,7.4,7.4,71,0.00,,,0.01,TxWx,2013-01-15 22:35:00,
2013-01-15 17:37:00,74.9,65.0,30.10,East,96,6.8,7.4,71,0.00,,,0.01,TxWx,2013-01-15 22:37:00,
2013-01-15 17:38:00,75.1,65.0,30.10,ESE,118,6.2,6.2,71,0.00,,,0.01,TxWx,2013-01-15 22:38:00,
2013-01-15 17:40:00,75.0,65.0,30.11,East,96,6.8,7.4,71,0.00,,,0.01,TxWx,2013-01-15 22:40:00,
2013-01-15 17:41:00,75.0,65.0,30.10,ESE,118,8.0,8.0,71,0.00,,,0.01,TxWx,2013-01-15 22:41:00,
2013-01-15 17:45:00,74.8,65.0,30.11,East,96,7.4,8.0,70,0.00,,,0.01,TxWx,2013-01-15 22:45:00,
2013-01-15 17:46:00,75.2,65.0,30.11,ESE,118,6.8,6.8,71,0.00,,,0.01,TxWx,2013-01-15 22:46:00,
2013-01-15 17:51:00,74.7,65.0,30.11,ESE,118,7.4,9.3,70,0.00,,,0.01,TxWx,2013-01-15 22:51:00,
2013-01-15 17:52:00,74.8,65.0,30.11,ESE,118,7.4,7.4,71,0.00,,,0.01,TxWx,2013-01-15 22:52:00,
2013-01-15 17:55:00,75.1,65.0,30.11,East,96,7.4,8.7,71,0.00,,,0.01,TxWx,2013-01-15 22:55:00,
2013-01-15 17:57:00,74.9,65.0,30.11,SE,141,6.8,6.8,71,0.00,,,0.01,TxWx,2013-01-15 22:57:00,
2013-01-15 17:58:00,74.9,65.0,30.11,ESE,118,8.0,8.7,71,0.00,,,0.01,TxWx,2013-01-15 22:58:00,
2013-01-15 17:59:00,75.1,65.0,30.11,ESE,118,6.8,7.4,71,0.00,,,0.01,TxWx,2013-01-15 22:59:00,
2013-01-15 18:02:00,74.8,65.0,30.11,ESE,118,7.4,8.0,70,0.00,,,0.01,TxWx,2013-01-15 23:02:00,
2013-01-15 18:04:00,74.5,64.0,30.11,ESE,118,9.3,9.9,70,0.00,,,0.01,TxWx,2013-01-15 23:04:00,
2013-01-15 18:07:00,75.0,65.0,30.11,SE,141,6.8,6.8,71,0.00,,,0.01,TxWx,2013-01-15 23:07:00,
2013-01-15 18:08:00,74.7,65.0,30.11,ESE,118,10.5,11.1,71,0.00,,,0.01,TxWx,2013-01-15 23:08:00,
2013-01-15 18:09:00,74.8,65.0,30.11,East,96,11.8,11.8,71,0.00,,,0.01,TxWx,2013-01-15 23:09:00,
2013-01-15 18:12:00,74.5,63.0,30.12,ESE,118,8.0,9.3,70,0.00,,,0.01,TxWx,2013-01-15 23:12:00,
2013-01-15 18:13:00,74.6,64.0,30.11,ESE,118,8.0,8.0,69,0.00,,,0.01,TxWx,2013-01-15 23:13:00,
2013-01-15 18:14:00,74.9,65.0,30.12,ESE,118,9.3,9.3,70,0.00,,,0.01,TxWx,2013-01-15 23:14:00,
2013-01-15 18:16:00,74.8,65.0,30.11,East,96,9.3,9.3,70,0.00,,,0.01,TxWx,2013-01-15 23:16:00,
2013-01-15 18:18:00,74.8,65.0,30.11,ESE,118,8.0,8.0,70,0.00,,,0.01,TxWx,2013-01-15 23:18:00,
2013-01-15 18:19:00,74.6,64.0,30.12,ESE,118,7.4,7.4,70,0.00,,,0.01,TxWx,2013-01-15 23:19:00,
2013-01-15 18:22:00,74.7,64.0,30.11,ESE,118,8.7,8.7,70,0.00,,,0.01,TxWx,2013-01-15 23:22:00,
2013-01-15 18:24:00,74.8,65.0,30.11,East,96,6.2,6.2,70,0.00,,,0.01,TxWx,2013-01-15 23:24:00,
2013-01-15 18:25:00,74.6,65.0,30.11,East,96,8.7,8.7,70,0.00,,,0.01,TxWx,2013-01-15 23:25:00,
2013-01-15 18:26:00,74.7,64.0,30.11,ESE,118,8.0,8.0,70,0.00,,,0.01,TxWx,2013-01-15 23:26:00,
2013-01-15 18:27:00,74.8,65.0,30.11,East,96,9.3,9.3,70,0.00,,,0.01,TxWx,2013-01-15 23:27:00,
2013-01-15 18:30:00,74.6,65.0,30.11,ESE,118,9.3,9.3,71,0.00,,,0.01,TxWx,2013-01-15 23:30:00,
2013-01-15 18:31:00,74.9,65.0,30.11,East,96,8.0,8.0,71,0.00,,,0.01,TxWx,2013-01-15 23:31:00,
2013-01-15 18:32:00,74.7,65.0,30.11,ESE,118,6.8,6.8,71,0.00,,,0.01,TxWx,2013-01-15 23:32:00,
2013-01-15 18:35:00,74.8,65.0,30.11,ESE,118,7.4,9.3,71,0.00,,,0.01,TxWx,2013-01-15 23:35:00,
2013-01-15 18:36:00,74.5,65.0,30.11,East,96,8.7,9.3,70,0.00,,,0.01,TxWx,2013-01-15 23:36:00,
2013-01-15 18:38:00,74.7,65.0,30.11,East,96,10.5,10.5,71,0.00,,,0.01,TxWx,2013-01-15 23:38:00,
2013-01-15 18:39:00,74.8,65.0,30.11,ESE,118,7.4,7.4,71,0.00,,,0.01,TxWx,2013-01-15 23:39:00,
2013-01-15 18:41:00,74.8,65.0,30.11,ESE,118,6.8,6.8,71,0.00,,,0.01,TxWx,2013-01-15 23:41:00,
2013-01-15 18:44:00,74.6,64.0,30.11,East,96,8.0,8.0,70,0.00,,,0.01,TxWx,2013-01-15 23:44:00,
2013-01-15 18:45:00,74.7,64.0,30.11,ESE,118,6.8,7.4,70,0.00,,,0.01,TxWx,2013-01-15 23:45:00,
2013-01-15 18:46:00,74.4,63.0,30.11,East,96,7.4,9.9,69,0.00,,,0.01,TxWx,2013-01-15 23:46:00,
2013-01-15 18:47:00,74.5,64.0,30.11,ESE,118,7.4,8.0,69,0.00,,,0.01,TxWx,2013-01-15 23:47:00,
2013-01-15 18:49:00,74.8,65.0,30.11,ESE,118,8.7,10.5,71,0.00,,,0.01,TxWx,2013-01-15 23:49:00,
2013-01-15 18:52:00,74.5,64.0,30.11,ESE,118,9.3,9.3,70,0.00,,,0.01,TxWx,2013-01-15 23:52:00,
2013-01-15 18:53:00,74.6,64.0,30.11,ESE,118,5.6,6.2,70,0.00,,,0.01,TxWx,2013-01-15 23:53:00,
2013-01-15 18:54:00,74.7,64.0,30.11,ESE,118,9.3,9.9,70,0.00,,,0.01,TxWx,2013-01-15 23:54:00,
2013-01-15 18:55:00,74.4,63.0,30.11,East,96,8.7,9.9,69,0.00,,,0.01,TxWx,2013-01-15 23:55:00,
2013-01-15 18:57:00,74.5,63.0,30.11,SE,141,7.4,7.4,69,0.00,,,0.01,TxWx,2013-01-15 23:57:00,
2013-01-15 18:58:00,74.9,64.0,30.11,ESE,118,6.8,6.8,69,0.00,,,0.01,TxWx,2013-01-15 23:58:00,
2013-01-15 19:01:00,74.7,64.0,30.11,ESE,118,5.6,6.2,69,0.00,,,0.01,TxWx,2013-01-16 00:01:00,
2013-01-15 19:02:00,74.8,64.0,30.11,ESE,118,5.6,5.6,69,0.00,,,0.01,TxWx,2013-01-16 00:02:00,
2013-01-15 19:04:00,74.8,64.0,30.11,SE,141,6.8,6.8,70,0.00,,,0.01,TxWx,2013-01-16 00:04:00,
2013-01-15 19:05:00,74.8,64.0,30.11,SE,141,6.2,6.8,70,0.00,,,0.01,TxWx,2013-01-16 00:05:00,
2013-01-15 19:07:00,74.6,64.0,30.11,SE,141,7.4,7.4,69,0.00,,,0.01,TxWx,2013-01-16 00:07:00,
2013-01-15 19:08:00,74.8,64.0,30.11,ESE,118,6.8,6.8,69,0.00,,,0.01,TxWx,2013-01-16 00:08:00,
2013-01-15 19:11:00,74.7,64.0,30.11,ESE,118,7.4,8.7,69,0.00,,,0.01,TxWx,2013-01-16 00:11:00,
2013-01-15 19:13:00,74.8,64.0,30.11,SE,141,9.9,9.9,69,0.00,,,0.01,TxWx,2013-01-16 00:13:00,
2013-01-15 19:14:00,74.5,64.0,30.11,SE,141,8.7,8.7,68,0.00,,,0.01,TxWx,2013-01-16 00:14:00,
2013-01-15 19:16:00,74.6,63.0,30.11,ESE,118,6.2,6.8,68,0.00,,,0.01,TxWx,2013-01-16 00:16:00,
2013-01-15 19:19:00,75.0,64.0,30.11,SE,141,5.6,6.2,69,0.00,,,0.01,TxWx,2013-01-16 00:19:00,
2013-01-15 19:20:00,74.8,64.0,30.11,SE,141,6.8,7.4,69,0.00,,,0.01,TxWx,2013-01-16 00:20:00,
2013-01-15 19:21:00,74.7,64.0,30.11,ESE,118,7.4,8.0,69,0.00,,,0.01,TxWx,2013-01-16 00:21:00,
2013-01-15 19:22:00,74.6,64.0,30.11,ESE,118,6.2,6.2,68,0.00,,,0.01,TxWx,2013-01-16 00:22:00,
2013-01-15 19:25:00,74.9,64.0,30.11,ESE,118,6.8,6.8,70,0.00,,,0.01,TxWx,2013-01-16 00:25:00,
2013-01-15 19:27:00,74.6,64.0,30.11,ESE,118,8.0,8.0,69,0.00,,,0.01,TxWx,2013-01-16 00:27:00,
2013-01-15 19:30:00,74.7,64.0,30.11,ESE,118,6.2,6.2,70,0.00,,,0.01,TxWx,2013-01-16 00:30:00,
2013-01-15 19:34:00,74.7,64.0,30.10,East,96,7.4,7.4,68,0.00,,,0.01,TxWx,2013-01-16 00:34:00,
2013-01-15 19:36:00,74.9,64.0,30.10,ESE,118,6.8,6.8,69,0.00,,,0.01,TxWx,2013-01-16 00:36:00,
2013-01-15 19:37:00,75.0,64.0,30.11,ESE,118,5.6,7.4,69,0.00,,,0.01,TxWx,2013-01-16 00:37:00,
2013-01-15 19:41:00,74.8,64.0,30.10,ESE,118,6.8,6.8,69,0.00,,,0.01,TxWx,2013-01-16 00:41:00,
2013-01-15 19:42:00,74.7,64.0,30.10,East,96,6.2,6.2,69,0.00,,,0.01,TxWx,2013-01-16 00:42:00,
2013-01-15 19:43:00,74.9,64.0,30.10,ESE,118,5.6,5.6,70,0.00,,,0.01,TxWx,2013-01-16 00:43:00,
2013-01-15 19:46:00,74.7,64.0,30.10,ESE,118,6.2,7.4,69,0.00,,,0.01,TxWx,2013-01-16 00:46:00,
2013-01-15 19:49:00,74.8,64.0,30.10,ESE,118,9.9,9.9,68,0.00,,,0.01,TxWx,2013-01-16 00:49:00,
2013-01-15 19:50:00,74.7,64.0,30.10,SE,141,7.4,7.4,68,0.00,,,0.01,TxWx,2013-01-16 00:50:00,
2013-01-15 19:51:00,74.5,63.0,30.10,ESE,118,7.4,7.4,67,0.00,,,0.01,TxWx,2013-01-16 00:51:00,
2013-01-15 19:54:00,74.9,64.0,30.10,East,96,6.8,6.8,68,0.00,,,0.01,TxWx,2013-01-16 00:54:00,
2013-01-15 19:55:00,74.8,64.0,30.10,ESE,118,6.2,6.2,68,0.00,,,0.01,TxWx,2013-01-16 00:55:00,
2013-01-15 19:57:00,74.8,64.0,30.10,ESE,118,9.3,9.3,69,0.00,,,0.01,TxWx,2013-01-16 00:57:00,
2013-01-15 19:59:00,75.0,64.0,30.10,SE,141,6.2,7.4,69,0.00,,,0.01,TxWx,2013-01-16 00:59:00,
2013-01-15 20:00:00,75.0,64.0,30.10,East,96,7.4,8.0,69,0.00,,,0.01,TxWx,2013-01-16 01:00:00,
2013-01-15 20:02:00,74.6,64.0,30.10,SE,141,7.4,7.4,69,0.00,,,0.01,TxWx,2013-01-16 01:02:00,
2013-01-15 20:05:00,74.9,64.0,30.10,ESE,118,6.2,6.2,69,0.00,,,0.01,TxWx,2013-01-16 01:05:00,
2013-01-15 20:06:00,75.1,65.0,30.10,SE,141,8.7,8.7,70,0.00,,,0.01,TxWx,2013-01-16 01:06:00,
2013-01-15 20:08:00,74.8,65.0,30.10,ESE,118,7.4,8.0,70,0.00,,,0.01,TxWx,2013-01-16 01:08:00,
2013-01-15 20:10:00,74.6,64.0,30.10,ESE,118,8.0,9.3,70,0.00,,,0.01,TxWx,2013-01-16 01:10:00,
2013-01-15 20:11:00,74.6,64.0,30.10,ESE,118,6.8,6.8,69,0.00,,,0.01,TxWx,2013-01-16 01:11:00,
2013-01-15 20:14:00,74.7,64.0,30.09,ESE,118,8.0,8.0,69,0.00,,,0.01,TxWx,2013-01-16 01:14:00,
2013-01-15 20:15:00,74.6,64.0,30.10,East,96,8.7,8.7,69,0.00,,,0.01,TxWx,2013-01-16 01:15:00,
2013-01-15 20:16:00,74.6,64.0,30.09,East,96,8.0,8.7,68,0.00,,,0.01,TxWx,2013-01-16 01:16:00,
2013-01-15 20:20:00,74.8,64.0,30.09,SE,141,8.0,8.7,69,0.00,,,0.01,TxWx,2013-01-16 01:20:00,
2013-01-15 20:21:00,74.7,64.0,30.09,ESE,118,8.0,8.7,70,0.00,,,0.01,TxWx,2013-01-16 01:21:00,
2013-01-15 20:26:00,74.8,65.0,30.09,East,96,8.0,8.0,70,0.00,,,0.01,TxWx,2013-01-16 01:26:00,
2013-01-15 20:27:00,74.7,64.0,30.09,SE,141,7.4,7.4,70,0.00,,,0.01,TxWx,2013-01-16 01:27:00,
2013-01-15 20:30:00,74.6,64.0,30.09,ESE,118,9.3,9.3,70,0.00,,,0.01,TxWx,2013-01-16 01:30:00,
2013-01-15 20:31:00,74.6,64.0,30.09,SE,141,7.4,8.0,70,0.00,,,0.01,TxWx,2013-01-16 01:31:00,
2013-01-15 20:32:00,74.7,64.0,30.09,ESE,118,7.4,8.0,70,0.00,,,0.01,TxWx,2013-01-16 01:32:00,
2013-01-15 20:33:00,74.7,65.0,30.09,SE,141,8.0,9.3,71,0.00,,,0.01,TxWx,2013-01-16 01:33:00,
2013-01-15 20:38:00,74.8,65.0,30.09,ESE,118,9.3,9.3,71,0.00,,,0.01,TxWx,2013-01-16 01:38:00,
2013-01-15 20:39:00,74.6,65.0,30.09,SE,141,11.1,11.1,70,0.00,,,0.01,TxWx,2013-01-16 01:39:00,
2013-01-15 20:43:00,74.5,65.0,30.09,East,96,9.3,9.9,70,0.00,,,0.01,TxWx,2013-01-16 01:43:00,
2013-01-15 20:44:00,74.6,65.0,30.09,ESE,118,8.0,9.3,71,0.00,,,0.01,TxWx,2013-01-16 01:44:00,
2013-01-15 20:46:00,74.5,65.0,30.09,ESE,118,8.0,9.9,71,0.00,,,0.01,TxWx,2013-01-16 01:46:00,
2013-01-15 20:49:00,74.8,65.0,30.09,East,96,8.7,8.7,71,0.00,,,0.01,TxWx,2013-01-16 01:49:00,
2013-01-15 20:51:00,74.9,65.0,30.09,SE,141,6.8,7.4,71,0.00,,,0.01,TxWx,2013-01-16 01:51:00,
2013-01-15 20:52:00,74.9,65.0,30.09,ESE,118,8.0,8.7,72,0.00,,,0.01,TxWx,2013-01-16 01:52:00,
2013-01-15 20:56:00,74.9,65.0,30.09,SE,141,9.9,9.9,72,0.00,,,0.01,TxWx,2013-01-16 01:56:00,
2013-01-15 20:57:00,74.8,65.0,30.09,ESE,118,8.7,9.3,72,0.00,,,0.01,TxWx,2013-01-16 01:57:00,
2013-01-15 20:59:00,74.6,65.0,30.09,ESE,118,8.0,8.0,71,0.00,,,0.01,TxWx,2013-01-16 01:59:00,
2013-01-15 21:02:00,74.9,65.0,30.09,ESE,118,8.0,8.7,72,0.00,,,0.01,TxWx,2013-01-16 02:02:00,
2013-01-15 21:05:00,74.7,65.0,30.08,SE,141,7.4,7.4,71,0.00,,,0.01,TxWx,2013-01-16 02:05:00,
2013-01-15 21:08:00,74.8,65.0,30.08,SE,141,8.7,8.7,72,0.00,,,0.01,TxWx,2013-01-16 02:08:00,
2013-01-15 21:09:00,74.9,65.0,30.08,ESE,118,8.7,8.7,72,0.00,,,0.01,TxWx,2013-01-16 02:09:00,
2013-01-15 21:10:00,74.5,65.0,30.08,SE,141,8.7,8.7,71,0.00,,,0.01,TxWx,2013-01-16 02:10:00,
2013-01-15 21:14:00,74.5,64.0,30.08,ESE,118,9.9,9.9,71,0.00,,,0.01,TxWx,2013-01-16 02:14:00,
2013-01-15 21:15:00,74.5,64.0,30.08,ESE,118,8.7,9.3,71,0.00,,,0.01,TxWx,2013-01-16 02:15:00,
2013-01-15 21:16:00,74.5,64.0,30.08,ESE,118,8.7,8.7,71,0.00,,,0.01,TxWx,2013-01-16 02:16:00,
2013-01-15 21:21:00,75.1,66.0,30.08,ESE,118,8.7,8.7,73,0.00,,,0.01,TxWx,2013-01-16 02:21:00,
2013-01-15 21:23:00,74.5,65.0,30.08,East,96,8.7,8.7,71,0.00,,,0.01,TxWx,2013-01-16 02:23:00,
2013-01-15 21:26:00,74.8,65.0,30.08,ESE,118,9.3,11.1,72,0.00,,,0.01,TxWx,2013-01-16 02:26:00,
2013-01-15 21:27:00,74.6,65.0,30.08,ESE,118,8.0,8.0,72,0.00,,,0.01,TxWx,2013-01-16 02:27:00,
2013-01-15 21:29:00,74.7,65.0,30.08,ESE,118,9.3,9.3,72,0.00,,,0.01,TxWx,2013-01-16 02:29:00,
2013-01-15 21:31:00,74.6,65.0,30.08,ESE,118,9.3,9.3,71,0.00,,,0.01,TxWx,2013-01-16 02:31:00,
2013-01-15 21:32:00,74.8,65.0,30.08,East,96,9.3,9.3,71,0.00,,,0.01,TxWx,2013-01-16 02:32:00,
2013-01-15 21:34:00,74.5,65.0,30.08,SE,141,8.7,10.5,71,0.00,,,0.01,TxWx,2013-01-16 02:34:00,
2013-01-15 21:38:00,74.7,65.0,30.08,SE,141,9.3,9.9,71,0.00,,,0.01,TxWx,2013-01-16 02:38:00,
2013-01-15 21:39:00,74.8,65.0,30.08,ESE,118,8.0,8.0,71,0.00,,,0.01,TxWx,2013-01-16 02:39:00,
2013-01-15 21:40:00,74.7,65.0,30.08,SE,141,8.0,8.7,71,0.00,,,0.01,TxWx,2013-01-16 02:40:00,
2013-01-15 21:41:00,74.2,64.0,30.08,ESE,118,10.5,10.5,70,0.00,,,0.01,TxWx,2013-01-16 02:41:00,
2013-01-15 21:43:00,74.5,65.0,30.08,ESE,118,10.5,10.5,70,0.00,,,0.01,TxWx,2013-01-16 02:43:00,
2013-01-15 21:45:00,74.6,64.0,30.08,ESE,118,8.7,9.3,70,0.00,,,0.01,TxWx,2013-01-16 02:45:00,
2013-01-15 21:46:00,75.0,65.0,30.08,ESE,118,8.0,8.7,70,0.00,,,0.01,TxWx,2013-01-16 02:46:00,
2013-01-15 21:49:00,74.8,65.0,30.08,ESE,118,8.7,8.7,71,0.00,,,0.01,TxWx,2013-01-16 02:49:00,
2013-01-15 21:51:00,74.7,65.0,30.08,SE,141,7.4,8.7,72,0.00,,,0.01,TxWx,2013-01-16 02:51:00,
2013-01-15 21:52:00,74.5,65.0,30.08,SE,141,9.3,9.3,71,0.00,,,0.01,TxWx,2013-01-16 02:52:00,
2013-01-15 21:55:00,74.2,64.0,30.08,SE,141,9.9,9.9,70,0.00,,,0.01,TxWx,2013-01-16 02:55:00,
2013-01-15 21:57:00,74.7,65.0,30.08,ESE,118,8.7,8.7,71,0.00,,,0.01,TxWx,2013-01-16 02:57:00,
2013-01-15 21:59:00,74.4,64.0,30.08,ESE,118,8.7,8.7,71,0.00,,,0.01,TxWx,2013-01-16 02:59:00,
2013-01-15 22:02:00,74.4,64.0,30.08,ESE,118,9.3,9.3,70,0.00,,,0.01,TxWx,2013-01-16 03:02:00,
2013-01-15 22:04:00,74.5,65.0,30.08,SE,141,8.7,8.7,70,0.00,,,0.01,TxWx,2013-01-16 03:04:00,
2013-01-15 22:08:00,74.5,64.0,30.07,SE,141,7.4,8.7,71,0.00,,,0.01,TxWx,2013-01-16 03:08:00,
2013-01-15 22:09:00,75.0,66.0,30.07,ESE,118,8.0,8.7,73,0.00,,,0.01,TxWx,2013-01-16 03:09:00,
2013-01-15 22:11:00,74.5,64.0,30.07,ESE,118,9.9,10.5,72,0.00,,,0.01,TxWx,2013-01-16 03:11:00,
2013-01-15 22:14:00,74.5,65.0,30.07,ESE,118,8.7,9.9,71,0.00,,,0.01,TxWx,2013-01-16 03:14:00,
2013-01-15 22:15:00,74.3,64.0,30.07,SE,141,10.5,11.1,71,0.00,,,0.01,TxWx,2013-01-16 03:15:00,
2013-01-15 22:16:00,74.5,65.0,30.07,SE,141,9.9,9.9,71,0.00,,,0.01,TxWx,2013-01-16 03:16:00,
2013-01-15 22:17:00,74.4,64.0,30.07,ESE,118,9.3,10.5,70,0.00,,,0.01,TxWx,2013-01-16 03:17:00,
2013-01-15 22:19:00,74.3,63.0,30.07,SE,141,9.9,9.9,70,0.00,,,0.01,TxWx,2013-01-16 03:19:00,
2013-01-15 22:20:00,74.2,63.0,30.07,ESE,118,11.1,11.1,69,0.00,,,0.01,TxWx,2013-01-16 03:20:00,
2013-01-15 22:23:00,74.6,64.0,30.07,SE,141,10.5,10.5,69,0.00,,,0.01,TxWx,2013-01-16 03:23:00,
2013-01-15 22:26:00,74.7,64.0,30.07,East,96,9.3,9.3,70,0.00,,,0.01,TxWx,2013-01-16 03:26:00,
2013-01-15 22:27:00,74.6,64.0,30.07,East,96,10.5,10.5,69,0.00,,,0.01,TxWx,2013-01-16 03:27:00,
2013-01-15 22:29:00,74.3,63.0,30.07,SE,141,8.7,9.9,68,0.00,,,0.01,TxWx,2013-01-16 03:29:00,
2013-01-15 22:32:00,74.7,64.0,30.07,ESE,118,8.7,8.7,69,0.00,,,0.01,TxWx,2013-01-16 03:32:00,
2013-01-15 22:33:00,74.5,64.0,30.07,ESE,118,9.3,9.3,68,0.00,,,0.01,TxWx,2013-01-16 03:33:00,
2013-01-15 22:35:00,74.7,64.0,30.07,SE,141,8.0,8.7,68,0.00,,,0.01,TxWx,2013-01-16 03:35:00,
2013-01-15 22:39:00,74.4,63.0,30.06,SE,141,8.7,9.9,68,0.00,,,0.01,TxWx,2013-01-16 03:39:00,
2013-01-15 22:41:00,74.7,63.0,30.06,SE,141,8.7,8.7,67,0.00,,,0.01,TxWx,2013-01-16 03:41:00,
2013-01-15 22:44:00,75.0,63.0,30.06,ESE,118,8.7,9.9,68,0.00,,,0.01,TxWx,2013-01-16 03:44:00,
2013-01-15 22:45:00,75.0,64.0,30.06,ESE,118,10.5,10.5,68,0.00,,,0.01,TxWx,2013-01-16 03:45:00,
2013-01-15 22:47:00,74.9,63.0,30.06,SE,141,7.4,9.3,68,0.00,,,0.01,TxWx,2013-01-16 03:47:00,
2013-01-15 22:49:00,74.9,64.0,30.06,ESE,118,9.3,9.3,68,0.00,,,0.01,TxWx,2013-01-16 03:49:00,
2013-01-15 22:50:00,74.9,63.0,30.06,ESE,118,9.3,10.5,68,0.00,,,0.01,TxWx,2013-01-16 03:50:00,
2013-01-15 22:52:00,74.8,63.0,30.06,ESE,118,9.3,9.3,68,0.00,,,0.01,TxWx,2013-01-16 03:52:00,
2013-01-15 22:55:00,74.9,63.0,30.06,SE,141,7.4,8.0,68,0.00,,,0.01,TxWx,2013-01-16 03:55:00,
2013-01-15 22:58:00,74.8,64.0,30.06,SE,141,9.9,9.9,68,0.00,,,0.01,TxWx,2013-01-16 03:58:00,
2013-01-15 23:02:00,74.8,63.0,30.06,SE,141,9.3,9.9,68,0.00,,,0.01,TxWx,2013-01-16 04:02:00,
2013-01-15 23:04:00,74.8,63.0,30.06,East,96,9.9,9.9,67,0.00,,,0.01,TxWx,2013-01-16 04:04:00,
2013-01-15 23:07:00,74.6,63.0,30.06,East,96,11.1,11.1,66,0.00,,,0.01,TxWx,2013-01-16 04:07:00,
2013-01-15 23:09:00,74.9,63.0,30.06,East,96,5.6,7.4,66,0.00,,,0.01,TxWx,2013-01-16 04:09:00,
2013-01-15 23:10:00,74.7,63.0,30.06,SE,141,7.4,7.4,66,0.00,,,0.01,TxWx,2013-01-16 04:10:00,
2013-01-15 23:11:00,74.9,63.0,30.06,ESE,118,8.0,8.0,66,0.00,,,0.01,TxWx,2013-01-16 04:11:00,
2013-01-15 23:16:00,74.8,63.0,30.06,ESE,118,8.0,9.9,67,0.00,,,0.01,TxWx,2013-01-16 04:16:00,
2013-01-15 23:17:00,74.7,63.0,30.06,East,96,8.0,8.7,66,0.00,,,0.01,TxWx,2013-01-16 04:17:00,
2013-01-15 23:18:00,74.9,63.0,30.06,SE,141,8.0,9.3,67,0.00,,,0.01,TxWx,2013-01-16 04:18:00,
2013-01-15 23:22:00,74.8,63.0,30.06,ESE,118,7.4,7.4,66,0.00,,,0.01,TxWx,2013-01-16 04:22:00,
2013-01-15 23:23:00,74.7,63.0,30.06,ESE,118,7.4,8.0,66,0.00,,,0.01,TxWx,2013-01-16 04:23:00,
2013-01-15 23:28:00,75.0,63.0,30.06,East,96,7.4,8.7,67,0.00,,,0.01,TxWx,2013-01-16 04:28:00,
2013-01-15 23:30:00,74.9,64.0,30.06,SE,141,9.3,11.1,68,0.00,,,0.01,TxWx,2013-01-16 04:30:00,
2013-01-15 23:33:00,74.8,64.0,30.06,ESE,118,8.7,9.3,68,0.00,,,0.01,TxWx,2013-01-16 04:33:00,
2013-01-15 23:34:00,74.8,64.0,30.06,ESE,118,8.0,8.7,68,0.00,,,0.01,TxWx,2013-01-16 04:34:00,
2013-01-15 23:38:00,74.9,64.0,30.06,SE,141,8.0,8.0,69,0.00,,,0.01,TxWx,2013-01-16 04:38:00,
2013-01-15 23:40:00,74.8,64.0,30.06,SE,141,8.7,8.7,69,0.00,,,0.01,TxWx,2013-01-16 04:40:00,
2013-01-15 23:43:00,74.8,63.0,30.06,SE,141,8.0,9.3,67,0.00,,,0.01,TxWx,2013-01-16 04:43:00,
2013-01-15 23:46:00,75.0,63.0,30.06,East,96,7.4,8.7,67,0.00,,,0.01,TxWx,2013-01-16 04:46:00,
2013-01-15 23:47:00,75.1,64.0,30.06,East,96,9.9,9.9,68,0.00,,,0.01,TxWx,2013-01-16 04:47:00,
2013-01-15 23:49:00,74.8,64.0,30.06,ESE,118,9.3,9.3,68,0.00,,,0.01,TxWx,2013-01-16 04:49:00,
2013-01-15 23:51:00,74.9,64.0,30.07,ESE,118,8.7,9.9,70,0.00,,,0.01,TxWx,2013-01-16 04:51:00,
2013-01-15 23:52:00,74.9,64.0,30.06,ESE,118,8.7,9.3,69,0.00,,,0.01,TxWx,2013-01-16 04:52:00,
2013-01-15 23:54:00,74.7,64.0,30.06,SE,141,6.8,6.8,68,0.00,,,0.01,TxWx,2013-01-16 04:54:00,
2013-01-15 23:56:00,74.8,64.0,30.06,SE,141,9.9,10.5,69,0.00,,,0.01,TxWx,2013-01-16 04:56:00,
2013-01-15 23:57:00,74.7,63.0,30.06,East,96,9.3,11.1,68,0.00,,,0.01,TxWx,2013-01-16 04:57:00,
2013-01-15 23:59:00,74.9,64.0,30.06,ESE,118,8.0,8.0,68,0.00,,,0.01,TxWx,2013-01-16 04:59:00,